PWSweather.com
Personal Weather Stations
Station Observations
DL5ARK
SonnebergDE

SonnebergDE

Lat: 50.34904861, Lon: 11.18112087

Elevation: 1214

Station Type: Selfmade

http://www.sumbarg.de

High Low Average
Temperature 81.3°F27.4°C 46.5°F8.1°C 64.1°F17.8°C
Dew Point 64.6°F18.1°C 50.4°F10.2°C 58.2°F14.6°C
Winds 6.8 mph 10.9 kmh Calm Calm 1.0 mph SSW1.6 kmh SSW
Wind Gusts 6.9 mph11.1 kmh -- 1.0 mph1.6 kmh
Humidity 84% 38% 63%
Pressure 30.05 in1017.6 mb 29.97 in1014.9 mb -
Precipitation 0.00 in0.0 mm - -
Hour Temp Dew Point Humidity Winds Wind Gusts Pressure Precip Precip Rate Daily Precip Total
12:02 AM 50.5°F10.3°C 54.9°F12.7°C 76% Calm Calm -- 30.03 in1016.9 mb 0.00 in0.0 mm 0.00 in0.0 mm 0.00 in0.0 mm
12:05 AM 50.2°F10.1°C 54.8°F12.7°C 76% Calm Calm -- 30.03 in1016.9 mb 0.00 in0.0 mm 0.00 in0.0 mm 0.00 in0.0 mm
12:08 AM 50.5°F10.3°C 55.0°F12.8°C 76% Calm Calm -- 30.03 in1016.9 mb 0.00 in0.0 mm 0.00 in0.0 mm 0.00 in0.0 mm
12:11 AM 50.0°F10.0°C 54.9°F12.7°C 76% Calm Calm -- 30.03 in1016.9 mb 0.00 in0.0 mm 0.00 in0.0 mm 0.00 in0.0 mm
12:14 AM 49.6°F9.8°C 54.7°F12.6°C 76% Calm Calm -- 30.03 in1016.9 mb 0.00 in0.0 mm 0.00 in0.0 mm 0.00 in0.0 mm
12:17 AM 49.7°F9.8°C 54.3°F12.4°C 75% Calm Calm -- 30.03 in1016.9 mb 0.00 in0.0 mm 0.00 in0.0 mm 0.00 in0.0 mm
12:20 AM 49.9°F9.9°C 54.4°F12.4°C 76% Calm Calm -- 30.03 in1016.9 mb 0.00 in0.0 mm 0.00 in0.0 mm 0.00 in0.0 mm
12:23 AM 49.4°F9.7°C 54.2°F12.3°C 76% Calm Calm -- 30.03 in1016.9 mb 0.00 in0.0 mm 0.00 in0.0 mm 0.00 in0.0 mm
12:26 AM 49.3°F9.6°C 54.0°F12.2°C 76% Calm Calm -- 30.03 in1016.9 mb 0.00 in0.0 mm 0.00 in0.0 mm 0.00 in0.0 mm
12:29 AM 49.1°F9.5°C 54.0°F12.2°C 76% Calm Calm -- 30.03 in1016.9 mb 0.00 in0.0 mm 0.00 in0.0 mm 0.00 in0.0 mm
12:32 AM 49.6°F9.8°C 53.8°F12.1°C 75% Calm Calm -- 30.03 in1016.9 mb 0.00 in0.0 mm 0.00 in0.0 mm 0.00 in0.0 mm
12:35 AM 49.4°F9.7°C 54.0°F12.2°C 76% Calm Calm -- 30.03 in1016.9 mb 0.00 in0.0 mm 0.00 in0.0 mm 0.00 in0.0 mm
12:38 AM 49.1°F9.5°C 53.8°F12.1°C 75% Calm Calm -- 30.03 in1016.9 mb 0.00 in0.0 mm 0.00 in0.0 mm 0.00 in0.0 mm
12:41 AM 49.3°F9.6°C 53.5°F11.9°C 76% Calm Calm -- 30.03 in1016.9 mb 0.00 in0.0 mm 0.00 in0.0 mm 0.00 in0.0 mm
12:44 AM 49.0°F9.4°C 53.5°F11.9°C 75% Calm Calm -- 30.03 in1016.9 mb 0.00 in0.0 mm 0.00 in0.0 mm 0.00 in0.0 mm
12:47 AM 49.4°F9.7°C 53.9°F12.2°C 77% Calm Calm -- 30.04 in1017.3 mb 0.00 in0.0 mm 0.00 in0.0 mm 0.00 in0.0 mm
12:50 AM 49.3°F9.6°C 53.9°F12.2°C 77% Calm Calm -- 30.03 in1016.9 mb 0.00 in0.0 mm 0.00 in0.0 mm 0.00 in0.0 mm
12:53 AM 49.3°F9.6°C 54.0°F12.2°C 77% Calm Calm -- 30.04 in1017.3 mb 0.00 in0.0 mm 0.00 in0.0 mm 0.00 in0.0 mm
12:56 AM 48.8°F9.3°C 53.5°F11.9°C 77% Calm Calm -- 30.03 in1016.9 mb 0.00 in0.0 mm 0.00 in0.0 mm 0.00 in0.0 mm
12:59 AM 48.9°F9.4°C 53.5°F11.9°C 77% Calm Calm -- 30.04 in1017.3 mb 0.00 in0.0 mm 0.00 in0.0 mm 0.00 in0.0 mm
01:02 AM 48.7°F9.3°C 53.4°F11.9°C 77% Calm Calm -- 30.04 in1017.3 mb 0.00 in0.0 mm 0.00 in0.0 mm 0.00 in0.0 mm
01:05 AM 48.9°F9.4°C 53.3°F11.8°C 77% Calm Calm -- 30.04 in1017.3 mb 0.00 in0.0 mm 0.00 in0.0 mm 0.00 in0.0 mm
01:08 AM 49.0°F9.4°C 53.4°F11.9°C 77% Calm Calm -- 30.04 in1017.3 mb 0.00 in0.0 mm 0.00 in0.0 mm 0.00 in0.0 mm
01:11 AM 49.2°F9.6°C 53.3°F11.8°C 77% Calm Calm -- 30.04 in1017.3 mb 0.00 in0.0 mm 0.00 in0.0 mm 0.00 in0.0 mm
01:14 AM 48.8°F9.3°C 53.5°F11.9°C 77% Calm Calm -- 30.04 in1017.3 mb 0.00 in0.0 mm 0.00 in0.0 mm 0.00 in0.0 mm
01:17 AM 49.1°F9.5°C 53.4°F11.9°C 78% Calm Calm -- 30.04 in1017.3 mb 0.00 in0.0 mm 0.00 in0.0 mm 0.00 in0.0 mm
01:20 AM 49.2°F9.6°C 53.7°F12.1°C 78% Calm Calm -- 30.04 in1017.3 mb 0.00 in0.0 mm 0.00 in0.0 mm 0.00 in0.0 mm
01:23 AM 49.3°F9.6°C 53.2°F11.8°C 77% Calm Calm -- 30.04 in1017.3 mb 0.00 in0.0 mm 0.00 in0.0 mm 0.00 in0.0 mm
01:26 AM 49.1°F9.5°C 53.5°F11.9°C 79% Calm Calm -- 30.04 in1017.3 mb 0.00 in0.0 mm 0.00 in0.0 mm 0.00 in0.0 mm
01:29 AM 49.4°F9.7°C 53.6°F12.0°C 79% Calm Calm -- 30.04 in1017.3 mb 0.00 in0.0 mm 0.00 in0.0 mm 0.00 in0.0 mm
01:32 AM 49.1°F9.5°C 53.5°F11.9°C 79% Calm Calm -- 30.04 in1017.3 mb 0.00 in0.0 mm 0.00 in0.0 mm 0.00 in0.0 mm
01:35 AM 49.2°F9.6°C 53.3°F11.8°C 78% Calm Calm -- 30.04 in1017.3 mb 0.00 in0.0 mm 0.00 in0.0 mm 0.00 in0.0 mm
01:38 AM 48.9°F9.4°C 53.3°F11.8°C 78% Calm Calm -- 30.04 in1017.3 mb 0.00 in0.0 mm 0.00 in0.0 mm 0.00 in0.0 mm
01:41 AM 48.8°F9.3°C 52.9°F11.6°C 77% Calm Calm -- 30.04 in1017.3 mb 0.00 in0.0 mm 0.00 in0.0 mm 0.00 in0.0 mm
01:44 AM 49.0°F9.4°C 53.0°F11.7°C 78% Calm Calm -- 30.04 in1017.3 mb 0.00 in0.0 mm 0.00 in0.0 mm 0.00 in0.0 mm
01:47 AM 49.2°F9.6°C 53.2°F11.8°C 79% Calm Calm -- 30.04 in1017.3 mb 0.00 in0.0 mm 0.00 in0.0 mm 0.00 in0.0 mm
01:50 AM 48.5°F9.2°C 53.2°F11.8°C 78% Calm Calm -- 30.04 in1017.3 mb 0.00 in0.0 mm 0.00 in0.0 mm 0.00 in0.0 mm
01:53 AM 49.2°F9.6°C 52.8°F11.6°C 78% Calm Calm -- 30.04 in1017.3 mb 0.00 in0.0 mm 0.00 in0.0 mm 0.00 in0.0 mm
01:56 AM 49.0°F9.4°C 53.1°F11.7°C 78% Calm Calm -- 30.04 in1017.3 mb 0.00 in0.0 mm 0.00 in0.0 mm 0.00 in0.0 mm
01:59 AM 49.0°F9.4°C 52.8°F11.6°C 78% Calm Calm -- 30.04 in1017.3 mb 0.00 in0.0 mm 0.00 in0.0 mm 0.00 in0.0 mm
02:02 AM 49.3°F9.6°C 53.5°F11.9°C 80% Calm Calm -- 30.04 in1017.3 mb 0.00 in0.0 mm 0.00 in0.0 mm 0.00 in0.0 mm
02:05 AM 48.8°F9.3°C 53.2°F11.8°C 79% Calm Calm -- 30.04 in1017.3 mb 0.00 in0.0 mm 0.00 in0.0 mm 0.00 in0.0 mm
02:08 AM 48.9°F9.4°C 52.9°F11.6°C 78% Calm Calm -- 30.04 in1017.3 mb 0.00 in0.0 mm 0.00 in0.0 mm 0.00 in0.0 mm
02:11 AM 49.0°F9.4°C 53.0°F11.7°C 79% Calm Calm -- 30.04 in1017.3 mb 0.00 in0.0 mm 0.00 in0.0 mm 0.00 in0.0 mm
02:14 AM 49.3°F9.6°C 53.4°F11.9°C 80% Calm Calm -- 30.04 in1017.3 mb 0.00 in0.0 mm 0.00 in0.0 mm 0.00 in0.0 mm
02:17 AM 48.4°F9.1°C 52.9°F11.6°C 79% Calm Calm -- 30.04 in1017.3 mb 0.00 in0.0 mm 0.00 in0.0 mm 0.00 in0.0 mm
02:20 AM 48.7°F9.3°C 53.3°F11.8°C 80% Calm Calm -- 30.04 in1017.3 mb 0.00 in0.0 mm 0.00 in0.0 mm 0.00 in0.0 mm
02:23 AM 47.8°F8.8°C 52.6°F11.4°C 79% Calm Calm -- 30.04 in1017.3 mb 0.00 in0.0 mm 0.00 in0.0 mm 0.00 in0.0 mm
02:26 AM 48.2°F9.0°C 52.5°F11.4°C 79% Calm Calm -- 30.04 in1017.3 mb 0.00 in0.0 mm 0.00 in0.0 mm 0.00 in0.0 mm
02:29 AM 49.0°F9.4°C 52.8°F11.6°C 79% Calm Calm -- 30.04 in1017.3 mb 0.00 in0.0 mm 0.00 in0.0 mm 0.00 in0.0 mm
02:32 AM 48.0°F8.9°C 52.6°F11.4°C 79% Calm Calm -- 30.04 in1017.3 mb 0.00 in0.0 mm 0.00 in0.0 mm 0.00 in0.0 mm
02:35 AM 48.9°F9.4°C 52.3°F11.3°C 79% Calm Calm -- 30.04 in1017.3 mb 0.00 in0.0 mm 0.00 in0.0 mm 0.00 in0.0 mm
02:38 AM 48.8°F9.3°C 52.4°F11.3°C 79% Calm Calm -- 30.04 in1017.3 mb 0.00 in0.0 mm 0.00 in0.0 mm 0.00 in0.0 mm
02:41 AM 48.2°F9.0°C 52.1°F11.2°C 79% Calm Calm -- 30.04 in1017.3 mb 0.00 in0.0 mm 0.00 in0.0 mm 0.00 in0.0 mm
02:44 AM 48.2°F9.0°C 52.4°F11.3°C 79% Calm Calm -- 30.04 in1017.3 mb 0.00 in0.0 mm 0.00 in0.0 mm 0.00 in0.0 mm
02:47 AM 48.2°F9.0°C 52.4°F11.3°C 79% Calm Calm -- 30.04 in1017.3 mb 0.00 in0.0 mm 0.00 in0.0 mm 0.00 in0.0 mm
02:50 AM 49.0°F9.4°C 52.4°F11.3°C 79% Calm Calm -- 30.04 in1017.3 mb 0.00 in0.0 mm 0.00 in0.0 mm 0.00 in0.0 mm
02:53 AM 48.3°F9.1°C 52.4°F11.3°C 80% Calm Calm -- 30.04 in1017.3 mb 0.00 in0.0 mm 0.00 in0.0 mm 0.00 in0.0 mm
02:56 AM 48.7°F9.3°C 53.1°F11.7°C 82% Calm Calm -- 30.04 in1017.3 mb 0.00 in0.0 mm 0.00 in0.0 mm 0.00 in0.0 mm
02:59 AM 48.9°F9.4°C 53.1°F11.7°C 83% Calm Calm -- 30.04 in1017.3 mb 0.00 in0.0 mm 0.00 in0.0 mm 0.00 in0.0 mm
03:02 AM 48.3°F9.1°C 52.7°F11.5°C 81% Calm Calm -- 30.04 in1017.3 mb 0.00 in0.0 mm 0.00 in0.0 mm 0.00 in0.0 mm
03:05 AM 48.2°F9.0°C 52.6°F11.4°C 81% Calm Calm -- 30.04 in1017.3 mb 0.00 in0.0 mm 0.00 in0.0 mm 0.00 in0.0 mm
03:08 AM 49.2°F9.6°C 52.6°F11.4°C 81% Calm Calm -- 30.04 in1017.3 mb 0.00 in0.0 mm 0.00 in0.0 mm 0.00 in0.0 mm
03:11 AM 48.2°F9.0°C 52.5°F11.4°C 81% Calm Calm -- 30.04 in1017.3 mb 0.00 in0.0 mm 0.00 in0.0 mm 0.00 in0.0 mm
03:14 AM 47.3°F8.5°C 52.3°F11.3°C 80% Calm Calm -- 30.04 in1017.3 mb 0.00 in0.0 mm 0.00 in0.0 mm 0.00 in0.0 mm
03:17 AM 47.8°F8.8°C 52.1°F11.2°C 80% Calm Calm -- 30.04 in1017.3 mb 0.00 in0.0 mm 0.00 in0.0 mm 0.00 in0.0 mm
03:20 AM 47.9°F8.8°C 52.1°F11.2°C 80% Calm Calm -- 30.04 in1017.3 mb 0.00 in0.0 mm 0.00 in0.0 mm 0.00 in0.0 mm
03:23 AM 48.7°F9.3°C 52.0°F11.1°C 80% Calm Calm -- 30.04 in1017.3 mb 0.00 in0.0 mm 0.00 in0.0 mm 0.00 in0.0 mm
03:26 AM 48.4°F9.1°C 52.3°F11.3°C 80% Calm Calm -- 30.04 in1017.3 mb 0.00 in0.0 mm 0.00 in0.0 mm 0.00 in0.0 mm
03:29 AM 47.8°F8.8°C 51.9°F11.1°C 80% Calm Calm -- 30.04 in1017.3 mb 0.00 in0.0 mm 0.00 in0.0 mm 0.00 in0.0 mm
03:32 AM 47.6°F8.7°C 52.1°F11.2°C 80% Calm Calm -- 30.04 in1017.3 mb 0.00 in0.0 mm 0.00 in0.0 mm 0.00 in0.0 mm
03:35 AM 48.1°F8.9°C 51.9°F11.1°C 80% Calm Calm -- 30.04 in1017.3 mb 0.00 in0.0 mm 0.00 in0.0 mm 0.00 in0.0 mm
03:38 AM 48.2°F9.0°C 52.1°F11.2°C 81% Calm Calm -- 30.04 in1017.3 mb 0.00 in0.0 mm 0.00 in0.0 mm 0.00 in0.0 mm
03:41 AM 48.1°F8.9°C 51.7°F10.9°C 79% Calm Calm -- 30.04 in1017.3 mb 0.00 in0.0 mm 0.00 in0.0 mm 0.00 in0.0 mm
03:44 AM 48.3°F9.1°C 51.8°F11.0°C 80% Calm Calm -- 30.04 in1017.3 mb 0.00 in0.0 mm 0.00 in0.0 mm 0.00 in0.0 mm
03:47 AM 48.1°F8.9°C 51.9°F11.1°C 80% Calm Calm -- 30.04 in1017.3 mb 0.00 in0.0 mm 0.00 in0.0 mm 0.00 in0.0 mm
03:50 AM 48.1°F8.9°C 51.9°F11.1°C 80% Calm Calm -- 30.04 in1017.3 mb 0.00 in0.0 mm 0.00 in0.0 mm 0.00 in0.0 mm
03:53 AM 47.9°F8.8°C 52.0°F11.1°C 80% Calm Calm -- 30.04 in1017.3 mb 0.00 in0.0 mm 0.00 in0.0 mm 0.00 in0.0 mm
03:56 AM 47.9°F8.8°C 52.1°F11.2°C 81% Calm Calm -- 30.04 in1017.3 mb 0.00 in0.0 mm 0.00 in0.0 mm 0.00 in0.0 mm
03:59 AM 47.9°F8.8°C 51.8°F11.0°C 81% Calm Calm -- 30.04 in1017.3 mb 0.00 in0.0 mm 0.00 in0.0 mm 0.00 in0.0 mm
04:02 AM 48.0°F8.9°C 51.9°F11.1°C 81% Calm Calm -- 30.04 in1017.3 mb 0.00 in0.0 mm 0.00 in0.0 mm 0.00 in0.0 mm
04:05 AM 48.1°F8.9°C 52.0°F11.1°C 81% Calm Calm -- 30.04 in1017.3 mb 0.00 in0.0 mm 0.00 in0.0 mm 0.00 in0.0 mm
04:08 AM 47.6°F8.7°C 51.8°F11.0°C 81% Calm Calm -- 30.04 in1017.3 mb 0.00 in0.0 mm 0.00 in0.0 mm 0.00 in0.0 mm
04:14 AM 47.9°F8.8°C 51.7°F10.9°C 81% Calm Calm -- 30.04 in1017.3 mb 0.00 in0.0 mm 0.00 in0.0 mm 0.00 in0.0 mm
04:17 AM 47.4°F8.6°C 51.3°F10.7°C 81% Calm Calm -- 30.04 in1017.3 mb 0.00 in0.0 mm 0.00 in0.0 mm 0.00 in0.0 mm
04:20 AM 47.1°F8.4°C 51.4°F10.8°C 80% Calm Calm -- 30.04 in1017.3 mb 0.00 in0.0 mm 0.00 in0.0 mm 0.00 in0.0 mm
04:23 AM 47.8°F8.8°C 51.2°F10.7°C 80% Calm Calm -- 30.03 in1016.9 mb 0.00 in0.0 mm 0.00 in0.0 mm 0.00 in0.0 mm
04:26 AM 48.0°F8.9°C 51.4°F10.8°C 81% Calm Calm -- 30.04 in1017.3 mb 0.00 in0.0 mm 0.00 in0.0 mm 0.00 in0.0 mm
04:29 AM 48.2°F9.0°C 51.7°F10.9°C 81% Calm Calm -- 30.03 in1016.9 mb 0.00 in0.0 mm 0.00 in0.0 mm 0.00 in0.0 mm
04:32 AM 47.4°F8.6°C 51.3°F10.7°C 81% Calm Calm -- 30.04 in1017.3 mb 0.00 in0.0 mm 0.00 in0.0 mm 0.00 in0.0 mm
04:35 AM 46.7°F8.2°C 51.3°F10.7°C 80% Calm Calm -- 30.03 in1016.9 mb 0.00 in0.0 mm 0.00 in0.0 mm 0.00 in0.0 mm
04:38 AM 46.9°F8.3°C 51.4°F10.8°C 80% Calm Calm -- 30.04 in1017.3 mb 0.00 in0.0 mm 0.00 in0.0 mm 0.00 in0.0 mm
04:41 AM 46.6°F8.1°C 50.9°F10.5°C 80% Calm Calm -- 30.04 in1017.3 mb 0.00 in0.0 mm 0.00 in0.0 mm 0.00 in0.0 mm
04:44 AM 46.7°F8.2°C 50.9°F10.5°C 80% Calm Calm -- 30.04 in1017.3 mb 0.00 in0.0 mm 0.00 in0.0 mm 0.00 in0.0 mm
04:47 AM 46.6°F8.1°C 50.6°F10.3°C 79% Calm Calm -- 30.04 in1017.3 mb 0.00 in0.0 mm 0.00 in0.0 mm 0.00 in0.0 mm
04:50 AM 46.7°F8.2°C 50.5°F10.3°C 80% Calm Calm -- 30.04 in1017.3 mb 0.00 in0.0 mm 0.00 in0.0 mm 0.00 in0.0 mm
04:53 AM 47.2°F8.4°C 50.9°F10.5°C 80% Calm Calm -- 30.04 in1017.3 mb 0.00 in0.0 mm 0.00 in0.0 mm 0.00 in0.0 mm
04:56 AM 46.9°F8.3°C 50.9°F10.5°C 80% Calm Calm -- 30.04 in1017.3 mb 0.00 in0.0 mm 0.00 in0.0 mm 0.00 in0.0 mm
04:59 AM 47.0°F8.3°C 50.8°F10.4°C 80% Calm Calm -- 30.04 in1017.3 mb 0.00 in0.0 mm 0.00 in0.0 mm 0.00 in0.0 mm
05:02 AM 46.5°F8.1°C 50.6°F10.3°C 79% Calm Calm -- 30.04 in1017.3 mb 0.00 in0.0 mm 0.00 in0.0 mm 0.00 in0.0 mm
05:05 AM 46.5°F8.1°C 50.4°F10.2°C 80% Calm Calm -- 30.04 in1017.3 mb 0.00 in0.0 mm 0.00 in0.0 mm 0.00 in0.0 mm
05:08 AM 46.7°F8.2°C 50.7°F10.4°C 81% Calm Calm -- 30.04 in1017.3 mb 0.00 in0.0 mm 0.00 in0.0 mm 0.00 in0.0 mm
05:11 AM 47.1°F8.4°C 50.7°F10.4°C 81% Calm Calm -- 30.04 in1017.3 mb 0.00 in0.0 mm 0.00 in0.0 mm 0.00 in0.0 mm
05:14 AM 47.2°F8.4°C 50.7°F10.4°C 81% Calm Calm -- 30.04 in1017.3 mb 0.00 in0.0 mm 0.00 in0.0 mm 0.00 in0.0 mm
05:17 AM 47.8°F8.8°C 50.7°F10.4°C 81% Calm Calm -- 30.04 in1017.3 mb 0.00 in0.0 mm 0.00 in0.0 mm 0.00 in0.0 mm
05:20 AM 48.1°F8.9°C 51.3°F10.7°C 82% Calm Calm -- 30.04 in1017.3 mb 0.00 in0.0 mm 0.00 in0.0 mm 0.00 in0.0 mm
05:23 AM 48.1°F8.9°C 51.6°F10.9°C 83% Calm Calm -- 30.05 in1017.6 mb 0.00 in0.0 mm 0.00 in0.0 mm 0.00 in0.0 mm
05:26 AM 48.3°F9.1°C 51.5°F10.8°C 82% Calm Calm -- 30.05 in1017.6 mb 0.00 in0.0 mm 0.00 in0.0 mm 0.00 in0.0 mm
05:29 AM 48.5°F9.2°C 51.3°F10.7°C 82% Calm Calm -- 30.05 in1017.6 mb 0.00 in0.0 mm 0.00 in0.0 mm 0.00 in0.0 mm
05:32 AM 48.4°F9.1°C 51.4°F10.8°C 82% Calm Calm -- 30.05 in1017.6 mb 0.00 in0.0 mm 0.00 in0.0 mm 0.00 in0.0 mm
05:35 AM 49.0°F9.4°C 52.0°F11.1°C 83% Calm Calm -- 30.04 in1017.3 mb 0.00 in0.0 mm 0.00 in0.0 mm 0.00 in0.0 mm
05:38 AM 49.6°F9.8°C 52.6°F11.4°C 84% Calm Calm -- 30.05 in1017.6 mb 0.00 in0.0 mm 0.00 in0.0 mm 0.00 in0.0 mm
05:41 AM 49.7°F9.8°C 53.0°F11.7°C 84% Calm Calm -- 30.05 in1017.6 mb 0.00 in0.0 mm 0.00 in0.0 mm 0.00 in0.0 mm
05:44 AM 49.9°F9.9°C 53.0°F11.7°C 84% Calm Calm -- 30.05 in1017.6 mb 0.00 in0.0 mm 0.00 in0.0 mm 0.00 in0.0 mm
05:47 AM 50.7°F10.4°C 53.7°F12.1°C 84% Calm Calm -- 30.05 in1017.6 mb 0.00 in0.0 mm 0.00 in0.0 mm 0.00 in0.0 mm
05:50 AM 51.0°F10.6°C 54.2°F12.3°C 83% Calm Calm -- 30.05 in1017.6 mb 0.00 in0.0 mm 0.00 in0.0 mm 0.00 in0.0 mm
05:53 AM 51.9°F11.1°C 54.4°F12.4°C 82% Calm Calm -- 30.05 in1017.6 mb 0.00 in0.0 mm 0.00 in0.0 mm 0.00 in0.0 mm
05:56 AM 52.6°F11.4°C 54.5°F12.5°C 81% Calm Calm -- 30.05 in1017.6 mb 0.00 in0.0 mm 0.00 in0.0 mm 0.00 in0.0 mm
05:59 AM 53.6°F12.0°C 55.0°F12.8°C 82% Calm Calm -- 30.05 in1017.6 mb 0.00 in0.0 mm 0.00 in0.0 mm 0.00 in0.0 mm
06:02 AM 54.5°F12.5°C 55.5°F13.1°C 82% Calm Calm -- 30.05 in1017.6 mb 0.00 in0.0 mm 0.00 in0.0 mm 0.00 in0.0 mm
06:05 AM 55.5°F13.1°C 56.2°F13.4°C 83% Calm Calm -- 30.05 in1017.6 mb 0.00 in0.0 mm 0.00 in0.0 mm 0.00 in0.0 mm
06:08 AM 56.9°F13.8°C 56.6°F13.7°C 82% Calm Calm -- 30.05 in1017.6 mb 0.00 in0.0 mm 0.00 in0.0 mm 0.00 in0.0 mm
06:11 AM 57.4°F14.1°C 57.4°F14.1°C 82% Calm Calm -- 30.05 in1017.6 mb 0.00 in0.0 mm 0.00 in0.0 mm 0.00 in0.0 mm
06:14 AM 57.4°F14.1°C 57.4°F14.1°C 80% Calm Calm -- 30.05 in1017.6 mb 0.00 in0.0 mm 0.00 in0.0 mm 0.00 in0.0 mm
06:17 AM 56.9°F13.8°C 56.8°F13.8°C 77% Calm Calm -- 30.05 in1017.6 mb 0.00 in0.0 mm 0.00 in0.0 mm 0.00 in0.0 mm
06:20 AM 56.9°F13.8°C 57.5°F14.2°C 79% Calm Calm -- 30.05 in1017.6 mb 0.00 in0.0 mm 0.00 in0.0 mm 0.00 in0.0 mm
06:23 AM 56.9°F13.8°C 57.6°F14.2°C 78% Calm Calm -- 30.05 in1017.6 mb 0.00 in0.0 mm 0.00 in0.0 mm 0.00 in0.0 mm
06:26 AM 57.3°F14.1°C 57.3°F14.1°C 77% Calm Calm -- 30.05 in1017.6 mb 0.00 in0.0 mm 0.00 in0.0 mm 0.00 in0.0 mm
06:29 AM 57.3°F14.1°C 57.4°F14.1°C 77% Calm Calm -- 30.05 in1017.6 mb 0.00 in0.0 mm 0.00 in0.0 mm 0.00 in0.0 mm
06:32 AM 57.5°F14.2°C 57.5°F14.2°C 77% Calm Calm -- 30.05 in1017.6 mb 0.00 in0.0 mm 0.00 in0.0 mm 0.00 in0.0 mm
06:35 AM 58.1°F14.5°C 57.9°F14.4°C 78% Calm Calm -- 30.05 in1017.6 mb 0.00 in0.0 mm 0.00 in0.0 mm 0.00 in0.0 mm
06:38 AM 59.2°F15.1°C 58.0°F14.4°C 79% Calm Calm -- 30.05 in1017.6 mb 0.00 in0.0 mm 0.00 in0.0 mm 0.00 in0.0 mm
06:41 AM 59.9°F15.5°C 58.3°F14.6°C 79% Calm Calm -- 30.05 in1017.6 mb 0.00 in0.0 mm 0.00 in0.0 mm 0.00 in0.0 mm
06:44 AM 60.2°F15.7°C 59.0°F15.0°C 81% Calm Calm -- 30.04 in1017.3 mb 0.00 in0.0 mm 0.00 in0.0 mm 0.00 in0.0 mm
06:47 AM 60.2°F15.7°C 59.0°F15.0°C 79% Calm Calm -- 30.05 in1017.6 mb 0.00 in0.0 mm 0.00 in0.0 mm 0.00 in0.0 mm
06:50 AM 60.1°F15.6°C 59.4°F15.2°C 79% Calm Calm -- 30.05 in1017.6 mb 0.00 in0.0 mm 0.00 in0.0 mm 0.00 in0.0 mm
06:53 AM 59.9°F15.5°C 59.1°F15.1°C 78% Calm Calm -- 30.04 in1017.3 mb 0.00 in0.0 mm 0.00 in0.0 mm 0.00 in0.0 mm
06:56 AM 59.6°F15.3°C 58.9°F14.9°C 77% Calm Calm -- 30.04 in1017.3 mb 0.00 in0.0 mm 0.00 in0.0 mm 0.00 in0.0 mm
06:59 AM 59.5°F15.3°C 59.1°F15.1°C 78% Calm Calm -- 30.04 in1017.3 mb 0.00 in0.0 mm 0.00 in0.0 mm 0.00 in0.0 mm
07:02 AM 59.8°F15.4°C 58.8°F14.9°C 77% Calm Calm -- 30.04 in1017.3 mb 0.00 in0.0 mm 0.00 in0.0 mm 0.00 in0.0 mm
07:05 AM 60.0°F15.6°C 58.9°F14.9°C 78% Calm Calm -- 30.05 in1017.6 mb 0.00 in0.0 mm 0.00 in0.0 mm 0.00 in0.0 mm
07:08 AM 60.2°F15.7°C 59.3°F15.2°C 79% Calm Calm -- 30.04 in1017.3 mb 0.00 in0.0 mm 0.00 in0.0 mm 0.00 in0.0 mm
07:11 AM 60.0°F15.6°C 59.3°F15.2°C 78% Calm Calm -- 30.05 in1017.6 mb 0.00 in0.0 mm 0.00 in0.0 mm 0.00 in0.0 mm
07:14 AM 59.9°F15.5°C 59.0°F15.0°C 77% Calm Calm -- 30.05 in1017.6 mb 0.00 in0.0 mm 0.00 in0.0 mm 0.00 in0.0 mm
07:17 AM 60.5°F15.8°C 59.1°F15.1°C 78% Calm Calm -- 30.04 in1017.3 mb 0.00 in0.0 mm 0.00 in0.0 mm 0.00 in0.0 mm
07:20 AM 60.8°F16.0°C 59.1°F15.1°C 77% Calm Calm -- 30.05 in1017.6 mb 0.00 in0.0 mm 0.00 in0.0 mm 0.00 in0.0 mm
07:23 AM 61.1°F16.2°C 59.5°F15.3°C 78% Calm Calm -- 30.05 in1017.6 mb 0.00 in0.0 mm 0.00 in0.0 mm 0.00 in0.0 mm
07:26 AM 61.1°F16.2°C 59.3°F15.2°C 78% Calm Calm -- 30.05 in1017.6 mb 0.00 in0.0 mm 0.00 in0.0 mm 0.00 in0.0 mm
07:29 AM 61.6°F16.4°C 60.0°F15.6°C 78% Calm Calm -- 30.05 in1017.6 mb 0.00 in0.0 mm 0.00 in0.0 mm 0.00 in0.0 mm
07:32 AM 61.8°F16.6°C 59.6°F15.3°C 78% Calm Calm -- 30.05 in1017.6 mb 0.00 in0.0 mm 0.00 in0.0 mm 0.00 in0.0 mm
07:35 AM 62.2°F16.8°C 60.1°F15.6°C 79% Calm Calm -- 30.05 in1017.6 mb 0.00 in0.0 mm 0.00 in0.0 mm 0.00 in0.0 mm
07:38 AM 62.5°F16.9°C 60.3°F15.7°C 79% Calm Calm -- 30.05 in1017.6 mb 0.00 in0.0 mm 0.00 in0.0 mm 0.00 in0.0 mm
07:41 AM 62.4°F16.9°C 60.3°F15.7°C 78% Calm Calm -- 30.04 in1017.3 mb 0.00 in0.0 mm 0.00 in0.0 mm 0.00 in0.0 mm
07:44 AM 62.9°F17.2°C 60.1°F15.6°C 78% Calm Calm -- 30.04 in1017.3 mb 0.00 in0.0 mm 0.00 in0.0 mm 0.00 in0.0 mm
07:47 AM 63.3°F17.4°C 60.6°F15.9°C 79% Calm Calm -- 30.04 in1017.3 mb 0.00 in0.0 mm 0.00 in0.0 mm 0.00 in0.0 mm
07:50 AM 63.1°F17.3°C 60.5°F15.8°C 79% Calm Calm -- 30.05 in1017.6 mb 0.00 in0.0 mm 0.00 in0.0 mm 0.00 in0.0 mm
07:53 AM 63.3°F17.4°C 60.7°F15.9°C 78% Calm Calm -- 30.04 in1017.3 mb 0.00 in0.0 mm 0.00 in0.0 mm 0.00 in0.0 mm
07:56 AM 63.8°F17.7°C 61.0°F16.1°C 79% Calm Calm -- 30.05 in1017.6 mb 0.00 in0.0 mm 0.00 in0.0 mm 0.00 in0.0 mm
07:59 AM 63.1°F17.3°C 60.9°F16.1°C 79% Calm Calm -- 30.05 in1017.6 mb 0.00 in0.0 mm 0.00 in0.0 mm 0.00 in0.0 mm
08:02 AM 63.3°F17.4°C 61.0°F16.1°C 78% Calm Calm -- 30.04 in1017.3 mb 0.00 in0.0 mm 0.00 in0.0 mm 0.00 in0.0 mm
08:05 AM 62.9°F17.2°C 61.0°F16.1°C 78% Calm Calm -- 30.05 in1017.6 mb 0.00 in0.0 mm 0.00 in0.0 mm 0.00 in0.0 mm
08:08 AM 64.3°F17.9°C 61.2°F16.2°C 79% Calm Calm -- 30.04 in1017.3 mb 0.00 in0.0 mm 0.00 in0.0 mm 0.00 in0.0 mm
08:11 AM 64.1°F17.8°C 61.4°F16.3°C 79% Calm Calm -- 30.05 in1017.6 mb 0.00 in0.0 mm 0.00 in0.0 mm 0.00 in0.0 mm
08:14 AM 63.7°F17.6°C 61.5°F16.4°C 79% 1.2 mph SW1.9 kmh SW 1.2 mph1.9 kmh 30.05 in1017.6 mb 0.00 in0.0 mm 0.00 in0.0 mm 0.00 in0.0 mm
08:17 AM 64.0°F17.8°C 61.6°F16.4°C 78% Calm Calm -- 30.05 in1017.6 mb 0.00 in0.0 mm 0.00 in0.0 mm 0.00 in0.0 mm
08:20 AM 64.2°F17.9°C 61.9°F16.6°C 79% Calm Calm -- 30.04 in1017.3 mb 0.00 in0.0 mm 0.00 in0.0 mm 0.00 in0.0 mm
08:23 AM 64.1°F17.8°C 61.8°F16.6°C 78% Calm Calm -- 30.04 in1017.3 mb 0.00 in0.0 mm 0.00 in0.0 mm 0.00 in0.0 mm
08:26 AM 64.5°F18.1°C 61.5°F16.4°C 78% Calm Calm -- 30.04 in1017.3 mb 0.00 in0.0 mm 0.00 in0.0 mm 0.00 in0.0 mm
08:29 AM 64.3°F17.9°C 61.8°F16.6°C 78% Calm Calm -- 30.04 in1017.3 mb 0.00 in0.0 mm 0.00 in0.0 mm 0.00 in0.0 mm
08:32 AM 65.6°F18.7°C 61.7°F16.5°C 78% 0.4 mph SW0.6 kmh SW 0.4 mph0.6 kmh 30.04 in1017.3 mb 0.00 in0.0 mm 0.00 in0.0 mm 0.00 in0.0 mm
08:35 AM 65.9°F18.8°C 62.3°F16.8°C 78% Calm Calm -- 30.04 in1017.3 mb 0.00 in0.0 mm 0.00 in0.0 mm 0.00 in0.0 mm
08:38 AM 65.2°F18.4°C 61.9°F16.6°C 77% Calm Calm -- 30.04 in1017.3 mb 0.00 in0.0 mm 0.00 in0.0 mm 0.00 in0.0 mm
08:41 AM 65.2°F18.4°C 61.6°F16.4°C 76% Calm Calm -- 30.04 in1017.3 mb 0.00 in0.0 mm 0.00 in0.0 mm 0.00 in0.0 mm
08:44 AM 65.4°F18.6°C 61.4°F16.3°C 75% Calm Calm -- 30.04 in1017.3 mb 0.00 in0.0 mm 0.00 in0.0 mm 0.00 in0.0 mm
08:47 AM 65.4°F18.6°C 61.4°F16.3°C 74% Calm Calm -- 30.04 in1017.3 mb 0.00 in0.0 mm 0.00 in0.0 mm 0.00 in0.0 mm
08:50 AM 65.4°F18.6°C 61.4°F16.3°C 74% Calm Calm -- 30.04 in1017.3 mb 0.00 in0.0 mm 0.00 in0.0 mm 0.00 in0.0 mm
08:53 AM 65.6°F18.7°C 61.1°F16.2°C 73% Calm Calm -- 30.04 in1017.3 mb 0.00 in0.0 mm 0.00 in0.0 mm 0.00 in0.0 mm
08:56 AM 65.9°F18.8°C 61.5°F16.4°C 74% Calm Calm -- 30.04 in1017.3 mb 0.00 in0.0 mm 0.00 in0.0 mm 0.00 in0.0 mm
08:59 AM 65.6°F18.7°C 61.6°F16.4°C 73% 0.8 mph SW1.3 kmh SW 0.8 mph1.3 kmh 30.04 in1017.3 mb 0.00 in0.0 mm 0.00 in0.0 mm 0.00 in0.0 mm
09:02 AM 65.9°F18.8°C 61.5°F16.4°C 74% Calm Calm -- 30.04 in1017.3 mb 0.00 in0.0 mm 0.00 in0.0 mm 0.00 in0.0 mm
09:05 AM 65.5°F18.6°C 61.5°F16.4°C 73% 0.8 mph SW1.3 kmh SW 0.8 mph1.3 kmh 30.04 in1017.3 mb 0.00 in0.0 mm 0.00 in0.0 mm 0.00 in0.0 mm
09:08 AM 66.0°F18.9°C 61.6°F16.4°C 73% 0.8 mph NNW1.3 kmh NNW 0.8 mph1.3 kmh 30.04 in1017.3 mb 0.00 in0.0 mm 0.00 in0.0 mm 0.00 in0.0 mm
09:11 AM 65.8°F18.8°C 61.3°F16.3°C 72% 0.4 mph SW0.6 kmh SW 0.4 mph0.6 kmh 30.04 in1017.3 mb 0.00 in0.0 mm 0.00 in0.0 mm 0.00 in0.0 mm
09:14 AM 65.8°F18.8°C 61.3°F16.3°C 72% 3.2 mph WSW5.1 kmh WSW 3.3 mph5.3 kmh 30.04 in1017.3 mb 0.00 in0.0 mm 0.00 in0.0 mm 0.00 in0.0 mm
09:17 AM 66.1°F18.9°C 61.8°F16.6°C 72% Calm Calm -- 30.04 in1017.3 mb 0.00 in0.0 mm 0.00 in0.0 mm 0.00 in0.0 mm
09:20 AM 65.5°F18.6°C 61.8°F16.6°C 72% 2.0 mph WSW3.2 kmh WSW 2.0 mph3.2 kmh 30.04 in1017.3 mb 0.00 in0.0 mm 0.00 in0.0 mm 0.00 in0.0 mm
09:23 AM 65.6°F18.7°C 61.4°F16.3°C 71% 3.2 mph W5.1 kmh W 3.3 mph5.3 kmh 30.04 in1017.3 mb 0.00 in0.0 mm 0.00 in0.0 mm 0.00 in0.0 mm
09:26 AM 66.3°F19.1°C 61.5°F16.4°C 71% 0.8 mph 1.3 kmh 0.8 mph1.3 kmh 30.04 in1017.3 mb 0.00 in0.0 mm 0.00 in0.0 mm 0.00 in0.0 mm
09:29 AM 66.2°F19.0°C 61.6°F16.4°C 71% Calm Calm -- 30.04 in1017.3 mb 0.00 in0.0 mm 0.00 in0.0 mm 0.00 in0.0 mm
09:32 AM 66.4°F19.1°C 61.5°F16.4°C 70% 1.2 mph W1.9 kmh W 1.2 mph1.9 kmh 30.04 in1017.3 mb 0.00 in0.0 mm 0.00 in0.0 mm 0.00 in0.0 mm
09:35 AM 66.7°F19.3°C 61.1°F16.2°C 70% 0.8 mph SE1.3 kmh SE 0.8 mph1.3 kmh 30.04 in1017.3 mb 0.00 in0.0 mm 0.00 in0.0 mm 0.00 in0.0 mm
09:38 AM 66.9°F19.4°C 61.5°F16.4°C 71% 1.2 mph SE1.9 kmh SE 1.2 mph1.9 kmh 30.04 in1017.3 mb 0.00 in0.0 mm 0.00 in0.0 mm 0.00 in0.0 mm
09:41 AM 67.0°F19.4°C 61.6°F16.4°C 71% 0.8 mph SW1.3 kmh SW 0.8 mph1.3 kmh 30.04 in1017.3 mb 0.00 in0.0 mm 0.00 in0.0 mm 0.00 in0.0 mm
09:44 AM 66.8°F19.3°C 61.4°F16.3°C 69% Calm Calm -- 30.04 in1017.3 mb 0.00 in0.0 mm 0.00 in0.0 mm 0.00 in0.0 mm
09:47 AM 67.3°F19.6°C 61.4°F16.3°C 69% 2.8 mph NW4.5 kmh NW 2.8 mph4.5 kmh 30.04 in1017.3 mb 0.00 in0.0 mm 0.00 in0.0 mm 0.00 in0.0 mm
09:50 AM 67.7°F19.8°C 61.2°F16.2°C 69% 3.6 mph 5.8 kmh 3.6 mph5.8 kmh 30.04 in1017.3 mb 0.00 in0.0 mm 0.00 in0.0 mm 0.00 in0.0 mm
09:53 AM 68.2°F20.1°C 61.1°F16.2°C 68% 2.0 mph W3.2 kmh W 2.0 mph3.2 kmh 30.04 in1017.3 mb 0.00 in0.0 mm 0.00 in0.0 mm 0.00 in0.0 mm
09:56 AM 67.9°F19.9°C 61.4°F16.3°C 68% 3.6 mph WSW5.8 kmh WSW 3.7 mph6.0 kmh 30.04 in1017.3 mb 0.00 in0.0 mm 0.00 in0.0 mm 0.00 in0.0 mm
09:59 AM 69.4°F20.8°C 62.3°F16.8°C 70% 2.0 mph NNW3.2 kmh NNW 2.0 mph3.2 kmh 30.04 in1017.3 mb 0.00 in0.0 mm 0.00 in0.0 mm 0.00 in0.0 mm
10:02 AM 68.6°F20.3°C 61.9°F16.6°C 67% 2.0 mph W3.2 kmh W 2.0 mph3.2 kmh 30.04 in1017.3 mb 0.00 in0.0 mm 0.00 in0.0 mm 0.00 in0.0 mm
10:05 AM 69.0°F20.6°C 61.8°F16.6°C 66% 0.8 mph SW1.3 kmh SW 0.8 mph1.3 kmh 30.04 in1017.3 mb 0.00 in0.0 mm 0.00 in0.0 mm 0.00 in0.0 mm
10:08 AM 69.5°F20.8°C 61.6°F16.4°C 65% 0.8 mph NNW1.3 kmh NNW 0.8 mph1.3 kmh 30.03 in1016.9 mb 0.00 in0.0 mm 0.00 in0.0 mm 0.00 in0.0 mm
10:11 AM 69.2°F20.7°C 62.0°F16.7°C 65% 2.4 mph W3.9 kmh W 2.4 mph3.9 kmh 30.03 in1016.9 mb 0.00 in0.0 mm 0.00 in0.0 mm 0.00 in0.0 mm
10:14 AM 70.9°F21.6°C 62.6°F17.0°C 66% 1.6 mph WNW2.6 kmh WNW 1.6 mph2.6 kmh 30.03 in1016.9 mb 0.00 in0.0 mm 0.00 in0.0 mm 0.00 in0.0 mm
10:17 AM 71.0°F21.7°C 63.2°F17.3°C 66% 1.2 mph SW1.9 kmh SW 1.2 mph1.9 kmh 30.03 in1016.9 mb 0.00 in0.0 mm 0.00 in0.0 mm 0.00 in0.0 mm
10:20 AM 71.3°F21.8°C 62.9°F17.2°C 64% Calm Calm -- 30.03 in1016.9 mb 0.00 in0.0 mm 0.00 in0.0 mm 0.00 in0.0 mm
10:23 AM 71.9°F22.2°C 64.0°F17.8°C 65% Calm Calm -- 30.03 in1016.9 mb 0.00 in0.0 mm 0.00 in0.0 mm 0.00 in0.0 mm
10:26 AM 73.2°F22.9°C 63.6°F17.6°C 63% 0.8 mph W1.3 kmh W 0.8 mph1.3 kmh 30.03 in1016.9 mb 0.00 in0.0 mm 0.00 in0.0 mm 0.00 in0.0 mm
10:29 AM 72.8°F22.7°C 63.6°F17.6°C 62% 0.4 mph WSW0.6 kmh WSW 0.4 mph0.6 kmh 30.03 in1016.9 mb 0.00 in0.0 mm 0.00 in0.0 mm 0.00 in0.0 mm
10:32 AM 74.2°F23.4°C 63.4°F17.4°C 61% 2.0 mph SW3.2 kmh SW 2.0 mph3.2 kmh 30.03 in1016.9 mb 0.00 in0.0 mm 0.00 in0.0 mm 0.00 in0.0 mm
10:35 AM 74.3°F23.5°C 64.6°F18.1°C 62% 2.0 mph NNW3.2 kmh NNW 2.0 mph3.2 kmh 30.03 in1016.9 mb 0.00 in0.0 mm 0.00 in0.0 mm 0.00 in0.0 mm
10:38 AM 73.9°F23.3°C 63.1°F17.3°C 58% 3.6 mph W5.8 kmh W 3.7 mph6.0 kmh 30.03 in1016.9 mb 0.00 in0.0 mm 0.00 in0.0 mm 0.00 in0.0 mm
10:41 AM 75.8°F24.3°C 64.0°F17.8°C 59% 2.8 mph W4.5 kmh W 2.8 mph4.5 kmh 30.03 in1016.9 mb 0.00 in0.0 mm 0.00 in0.0 mm 0.00 in0.0 mm
10:44 AM 74.1°F23.4°C 62.0°F16.7°C 55% 4.4 mph WSW7.1 kmh WSW 4.4 mph7.1 kmh 30.03 in1016.9 mb 0.00 in0.0 mm 0.00 in0.0 mm 0.00 in0.0 mm
10:47 AM 74.0°F23.3°C 62.4°F16.9°C 55% 4.6 mph NNW7.4 kmh NNW 4.6 mph7.4 kmh 30.03 in1016.9 mb 0.00 in0.0 mm 0.00 in0.0 mm 0.00 in0.0 mm
10:50 AM 74.5°F23.6°C 63.0°F17.2°C 56% 3.6 mph WSW5.8 kmh WSW 3.6 mph5.8 kmh 30.03 in1016.9 mb 0.00 in0.0 mm 0.00 in0.0 mm 0.00 in0.0 mm
10:53 AM 74.0°F23.3°C 61.8°F16.6°C 53% 4.0 mph NW6.4 kmh NW 4.1 mph6.6 kmh 30.03 in1016.9 mb 0.00 in0.0 mm 0.00 in0.0 mm 0.00 in0.0 mm
10:56 AM 73.5°F23.1°C 62.1°F16.7°C 54% 6.0 mph NW9.7 kmh NW 6.0 mph9.7 kmh 30.03 in1016.9 mb 0.00 in0.0 mm 0.00 in0.0 mm 0.00 in0.0 mm
10:59 AM 72.6°F22.6°C 62.1°F16.7°C 54% 5.6 mph WSW9.0 kmh WSW 5.6 mph9.0 kmh 30.03 in1016.9 mb 0.00 in0.0 mm 0.00 in0.0 mm 0.00 in0.0 mm
11:02 AM 73.9°F23.3°C 62.3°F16.8°C 55% 2.8 mph SW4.5 kmh SW 2.9 mph4.7 kmh 30.03 in1016.9 mb 0.00 in0.0 mm 0.00 in0.0 mm 0.00 in0.0 mm
11:05 AM 75.3°F24.1°C 63.3°F17.4°C 57% 4.4 mph W7.1 kmh W 4.5 mph7.2 kmh 30.03 in1016.9 mb 0.00 in0.0 mm 0.00 in0.0 mm 0.00 in0.0 mm
11:08 AM 73.7°F23.2°C 61.4°F16.3°C 52% 4.4 mph NW7.1 kmh NW 4.5 mph7.2 kmh 30.03 in1016.9 mb 0.00 in0.0 mm 0.00 in0.0 mm 0.00 in0.0 mm
11:11 AM 73.6°F23.1°C 61.3°F16.3°C 52% 5.3 mph W8.5 kmh W 5.3 mph8.5 kmh 30.03 in1016.9 mb 0.00 in0.0 mm 0.00 in0.0 mm 0.00 in0.0 mm
11:14 AM 73.3°F22.9°C 61.7°F16.5°C 53% 4.0 mph W6.4 kmh W 4.0 mph6.4 kmh 30.03 in1016.9 mb 0.00 in0.0 mm 0.00 in0.0 mm 0.00 in0.0 mm
11:17 AM 73.3°F22.9°C 61.2°F16.2°C 52% 2.0 mph NW3.2 kmh NW 2.0 mph3.2 kmh 30.03 in1016.9 mb 0.00 in0.0 mm 0.00 in0.0 mm 0.00 in0.0 mm
11:20 AM 72.4°F22.4°C 61.2°F16.2°C 52% 5.7 mph NW9.2 kmh NW 5.8 mph9.3 kmh 30.03 in1016.9 mb 0.00 in0.0 mm 0.00 in0.0 mm 0.00 in0.0 mm
11:23 AM 72.2°F22.3°C 60.4°F15.8°C 51% 1.2 mph NW1.9 kmh NW 1.2 mph1.9 kmh 30.03 in1016.9 mb 0.00 in0.0 mm 0.00 in0.0 mm 0.00 in0.0 mm
11:26 AM 72.4°F22.4°C 60.9°F16.1°C 53% 1.6 mph NW2.6 kmh NW 1.6 mph2.6 kmh 30.03 in1016.9 mb 0.00 in0.0 mm 0.00 in0.0 mm 0.00 in0.0 mm
11:29 AM 73.0°F22.8°C 61.5°F16.4°C 54% 3.6 mph WSW5.8 kmh WSW 3.6 mph5.8 kmh 30.03 in1016.9 mb 0.00 in0.0 mm 0.00 in0.0 mm 0.00 in0.0 mm
11:32 AM 72.6°F22.6°C 61.9°F16.6°C 54% 5.6 mph WSW9.0 kmh WSW 5.6 mph9.0 kmh 30.03 in1016.9 mb 0.00 in0.0 mm 0.00 in0.0 mm 0.00 in0.0 mm
11:35 AM 73.0°F22.8°C 61.2°F16.2°C 53% 1.2 mph W1.9 kmh W 1.2 mph1.9 kmh 30.03 in1016.9 mb 0.00 in0.0 mm 0.00 in0.0 mm 0.00 in0.0 mm
11:41 AM 73.5°F23.1°C 61.3°F16.3°C 54% 2.8 mph WNW4.5 kmh WNW 2.8 mph4.5 kmh 30.03 in1016.9 mb 0.00 in0.0 mm 0.00 in0.0 mm 0.00 in0.0 mm
11:44 AM 74.1°F23.4°C 60.2°F15.7°C 50% 4.4 mph NW7.1 kmh NW 4.4 mph7.1 kmh 30.03 in1016.9 mb 0.00 in0.0 mm 0.00 in0.0 mm 0.00 in0.0 mm
11:47 AM 73.0°F22.8°C 61.4°F16.3°C 52% 4.8 mph W7.7 kmh W 4.9 mph7.9 kmh 30.02 in1016.6 mb 0.00 in0.0 mm 0.00 in0.0 mm 0.00 in0.0 mm
11:50 AM 74.1°F23.4°C 60.8°F16.0°C 50% 2.4 mph NNW3.9 kmh NNW 2.4 mph3.9 kmh 30.02 in1016.6 mb 0.00 in0.0 mm 0.00 in0.0 mm 0.00 in0.0 mm
11:53 AM 74.9°F23.8°C 61.4°F16.3°C 50% 3.2 mph W5.1 kmh W 3.3 mph5.3 kmh 30.02 in1016.6 mb 0.00 in0.0 mm 0.00 in0.0 mm 0.00 in0.0 mm
11:56 AM 75.8°F24.3°C 62.8°F17.1°C 52% 1.6 mph W2.6 kmh W 1.6 mph2.6 kmh 30.03 in1016.9 mb 0.00 in0.0 mm 0.00 in0.0 mm 0.00 in0.0 mm
11:59 AM 74.5°F23.6°C 60.4°F15.8°C 46% 3.3 mph NNW5.3 kmh NNW 3.4 mph5.5 kmh 30.03 in1016.9 mb 0.00 in0.0 mm 0.00 in0.0 mm 0.00 in0.0 mm
12:02 PM 74.8°F23.8°C 61.2°F16.2°C 47% 2.8 mph 4.5 kmh 2.9 mph4.7 kmh 30.02 in1016.6 mb 0.00 in0.0 mm 0.00 in0.0 mm 0.00 in0.0 mm
12:05 PM 76.3°F24.6°C 62.1°F16.7°C 48% 3.2 mph WSW5.1 kmh WSW 3.3 mph5.3 kmh 30.02 in1016.6 mb 0.00 in0.0 mm 0.00 in0.0 mm 0.00 in0.0 mm
12:08 PM 75.7°F24.3°C 61.4°F16.3°C 47% 3.6 mph SW5.8 kmh SW 3.7 mph6.0 kmh 30.02 in1016.6 mb 0.00 in0.0 mm 0.00 in0.0 mm 0.00 in0.0 mm
12:11 PM 74.4°F23.6°C 61.3°F16.3°C 47% 4.8 mph NNW7.7 kmh NNW 4.8 mph7.7 kmh 30.02 in1016.6 mb 0.00 in0.0 mm 0.00 in0.0 mm 0.00 in0.0 mm
12:14 PM 75.7°F24.3°C 62.2°F16.8°C 49% 2.4 mph NNW3.9 kmh NNW 2.4 mph3.9 kmh 30.01 in1016.3 mb 0.00 in0.0 mm 0.00 in0.0 mm 0.00 in0.0 mm
12:17 PM 75.4°F24.1°C 62.3°F16.8°C 49% 4.0 mph W6.4 kmh W 4.1 mph6.6 kmh 30.02 in1016.6 mb 0.00 in0.0 mm 0.00 in0.0 mm 0.00 in0.0 mm
12:20 PM 76.8°F24.9°C 63.0°F17.2°C 49% 4.4 mph NNW7.1 kmh NNW 4.4 mph7.1 kmh 30.02 in1016.6 mb 0.00 in0.0 mm 0.00 in0.0 mm 0.00 in0.0 mm
12:23 PM 76.4°F24.7°C 63.5°F17.5°C 49% 5.3 mph 8.5 kmh 5.3 mph8.5 kmh 30.02 in1016.6 mb 0.00 in0.0 mm 0.00 in0.0 mm 0.00 in0.0 mm
12:26 PM 73.9°F23.3°C 61.7°F16.5°C 47% 2.8 mph 4.5 kmh 2.9 mph4.7 kmh 30.01 in1016.3 mb 0.00 in0.0 mm 0.00 in0.0 mm 0.00 in0.0 mm
12:29 PM 73.4°F23.0°C 61.4°F16.3°C 47% 0.8 mph NW1.3 kmh NW 0.8 mph1.3 kmh 30.01 in1016.3 mb 0.00 in0.0 mm 0.00 in0.0 mm 0.00 in0.0 mm
12:32 PM 73.5°F23.1°C 61.5°F16.4°C 48% 2.0 mph W3.2 kmh W 2.0 mph3.2 kmh 30.01 in1016.3 mb 0.00 in0.0 mm 0.00 in0.0 mm 0.00 in0.0 mm
12:35 PM 74.5°F23.6°C 62.1°F16.7°C 49% Calm Calm -- 30.01 in1016.3 mb 0.00 in0.0 mm 0.00 in0.0 mm 0.00 in0.0 mm
12:38 PM 74.5°F23.6°C 61.1°F16.2°C 46% 3.2 mph NW5.1 kmh NW 3.2 mph5.1 kmh 30.01 in1016.3 mb 0.00 in0.0 mm 0.00 in0.0 mm 0.00 in0.0 mm
12:41 PM 73.5°F23.1°C 59.5°F15.3°C 45% 3.2 mph NW5.1 kmh NW 3.3 mph5.3 kmh 30.01 in1016.3 mb 0.00 in0.0 mm 0.00 in0.0 mm 0.00 in0.0 mm
12:44 PM 74.0°F23.3°C 60.3°F15.7°C 46% 3.2 mph NNW5.1 kmh NNW 3.2 mph5.1 kmh 30.01 in1016.3 mb 0.00 in0.0 mm 0.00 in0.0 mm 0.00 in0.0 mm
12:47 PM 73.9°F23.3°C 61.1°F16.2°C 47% 2.0 mph WSW3.2 kmh WSW 2.0 mph3.2 kmh 30.01 in1016.3 mb 0.00 in0.0 mm 0.00 in0.0 mm 0.00 in0.0 mm
12:50 PM 74.3°F23.5°C 61.0°F16.1°C 47% 0.4 mph WSW0.6 kmh WSW 0.4 mph0.6 kmh 30.01 in1016.3 mb 0.00 in0.0 mm 0.00 in0.0 mm 0.00 in0.0 mm
12:56 PM 74.6°F23.7°C 62.3°F16.8°C 49% 2.4 mph W3.9 kmh W 2.5 mph4.0 kmh 30.01 in1016.3 mb 0.00 in0.0 mm 0.00 in0.0 mm 0.00 in0.0 mm
12:59 PM 75.7°F24.3°C 61.6°F16.4°C 49% 3.2 mph W5.1 kmh W 3.2 mph5.1 kmh 30.01 in1016.3 mb 0.00 in0.0 mm 0.00 in0.0 mm 0.00 in0.0 mm
01:02 PM 77.2°F25.1°C 62.5°F16.9°C 49% 2.8 mph WSW4.5 kmh WSW 2.8 mph4.5 kmh 30.01 in1016.3 mb 0.00 in0.0 mm 0.00 in0.0 mm 0.00 in0.0 mm
01:05 PM 76.9°F24.9°C 60.2°F15.7°C 45% 6.5 mph WSW10.5 kmh WSW 6.5 mph10.5 kmh 30.01 in1016.3 mb 0.00 in0.0 mm 0.00 in0.0 mm 0.00 in0.0 mm
01:08 PM 77.5°F25.3°C 62.1°F16.7°C 46% 3.2 mph SW5.1 kmh SW 3.2 mph5.1 kmh 30.01 in1016.3 mb 0.00 in0.0 mm 0.00 in0.0 mm 0.00 in0.0 mm
01:11 PM 77.8°F25.4°C 63.0°F17.2°C 47% 3.2 mph WSW5.1 kmh WSW 3.3 mph5.3 kmh 30.01 in1016.3 mb 0.00 in0.0 mm 0.00 in0.0 mm 0.00 in0.0 mm
01:14 PM 78.1°F25.6°C 61.9°F16.6°C 45% 4.9 mph WSW7.9 kmh WSW 4.9 mph7.9 kmh 30.01 in1016.3 mb 0.00 in0.0 mm 0.00 in0.0 mm 0.00 in0.0 mm
01:17 PM 75.4°F24.1°C 60.7°F15.9°C 43% 5.3 mph NW8.5 kmh NW 5.3 mph8.5 kmh 30.01 in1016.3 mb 0.00 in0.0 mm 0.00 in0.0 mm 0.00 in0.0 mm
01:20 PM 75.5°F24.2°C 61.2°F16.2°C 44% 0.8 mph NNW1.3 kmh NNW 0.8 mph1.3 kmh 30.01 in1016.3 mb 0.00 in0.0 mm 0.00 in0.0 mm 0.00 in0.0 mm
01:26 PM 76.2°F24.6°C 61.8°F16.6°C 46% 3.6 mph WNW5.8 kmh WNW 3.7 mph6.0 kmh 30.01 in1016.3 mb 0.00 in0.0 mm 0.00 in0.0 mm 0.00 in0.0 mm
01:29 PM 75.5°F24.2°C 61.0°F16.1°C 45% 3.2 mph W5.1 kmh W 3.2 mph5.1 kmh 30.01 in1016.3 mb 0.00 in0.0 mm 0.00 in0.0 mm 0.00 in0.0 mm
01:32 PM 75.3°F24.1°C 60.4°F15.8°C 44% 3.1 mph W5.0 kmh W 3.1 mph5.0 kmh 30.01 in1016.3 mb 0.00 in0.0 mm 0.00 in0.0 mm 0.00 in0.0 mm
01:35 PM 76.0°F24.4°C 60.5°F15.8°C 45% 3.6 mph WSW5.8 kmh WSW 3.7 mph6.0 kmh 30.01 in1016.3 mb 0.00 in0.0 mm 0.00 in0.0 mm 0.00 in0.0 mm
01:38 PM 75.8°F24.3°C 60.9°F16.1°C 45% 2.4 mph W3.9 kmh W 2.4 mph3.9 kmh 30.01 in1016.3 mb 0.00 in0.0 mm 0.00 in0.0 mm 0.00 in0.0 mm
01:41 PM 76.7°F24.8°C 60.6°F15.9°C 46% 3.2 mph W5.1 kmh W 3.3 mph5.3 kmh 30.01 in1016.3 mb 0.00 in0.0 mm 0.00 in0.0 mm 0.00 in0.0 mm
01:44 PM 77.3°F25.2°C 61.4°F16.3°C 46% 2.0 mph SW3.2 kmh SW 2.0 mph3.2 kmh 30.01 in1016.3 mb 0.00 in0.0 mm 0.00 in0.0 mm 0.00 in0.0 mm
01:47 PM 76.9°F24.9°C 61.3°F16.3°C 46% 3.2 mph WSW5.1 kmh WSW 3.2 mph5.1 kmh 30.01 in1016.3 mb 0.00 in0.0 mm 0.00 in0.0 mm 0.00 in0.0 mm
01:50 PM 75.4°F24.1°C 59.7°F15.4°C 44% 5.7 mph W9.2 kmh W 5.7 mph9.2 kmh 30.01 in1016.3 mb 0.00 in0.0 mm 0.00 in0.0 mm 0.00 in0.0 mm
01:53 PM 75.8°F24.3°C 60.8°F16.0°C 45% 3.6 mph W5.8 kmh W 3.7 mph6.0 kmh 30.01 in1016.3 mb 0.00 in0.0 mm 0.00 in0.0 mm 0.00 in0.0 mm
01:56 PM 75.3°F24.1°C 61.0°F16.1°C 46% 2.0 mph SW3.2 kmh SW 2.0 mph3.2 kmh 30.01 in1016.3 mb 0.00 in0.0 mm 0.00 in0.0 mm 0.00 in0.0 mm
01:59 PM 76.9°F24.9°C 60.3°F15.7°C 45% 2.8 mph NNW4.5 kmh NNW 2.9 mph4.7 kmh 30.01 in1016.3 mb 0.00 in0.0 mm 0.00 in0.0 mm 0.00 in0.0 mm
02:02 PM 76.6°F24.8°C 61.3°F16.3°C 46% 1.2 mph W1.9 kmh W 1.2 mph1.9 kmh 30.01 in1016.3 mb 0.00 in0.0 mm 0.00 in0.0 mm 0.00 in0.0 mm
02:05 PM 77.1°F25.1°C 60.4°F15.8°C 45% 2.0 mph WNW3.2 kmh WNW 2.0 mph3.2 kmh 30.01 in1016.3 mb 0.00 in0.0 mm 0.00 in0.0 mm 0.00 in0.0 mm
02:08 PM 77.3°F25.2°C 60.2°F15.7°C 44% 3.6 mph NW5.8 kmh NW 3.7 mph6.0 kmh 30.01 in1016.3 mb 0.00 in0.0 mm 0.00 in0.0 mm 0.00 in0.0 mm
02:11 PM 76.8°F24.9°C 60.7°F15.9°C 44% 3.6 mph NW5.8 kmh NW 3.6 mph5.8 kmh 30.01 in1016.3 mb 0.00 in0.0 mm 0.00 in0.0 mm 0.00 in0.0 mm
02:14 PM 75.9°F24.4°C 59.2°F15.1°C 43% 2.8 mph NNW4.5 kmh NNW 2.8 mph4.5 kmh 30.01 in1016.3 mb 0.00 in0.0 mm 0.00 in0.0 mm 0.00 in0.0 mm
02:17 PM 75.3°F24.1°C 58.9°F14.9°C 42% 3.6 mph WNW5.8 kmh WNW 3.7 mph6.0 kmh 30.01 in1016.3 mb 0.00 in0.0 mm 0.00 in0.0 mm 0.00 in0.0 mm
02:20 PM 75.2°F24.0°C 60.0°F15.6°C 44% 3.3 mph NW5.3 kmh NW 3.3 mph5.3 kmh 30.01 in1016.3 mb 0.00 in0.0 mm 0.00 in0.0 mm 0.00 in0.0 mm
02:23 PM 74.5°F23.6°C 59.7°F15.4°C 44% 4.8 mph 7.7 kmh 4.9 mph7.9 kmh 30.01 in1016.3 mb 0.00 in0.0 mm 0.00 in0.0 mm 0.00 in0.0 mm
02:26 PM 74.9°F23.8°C 60.1°F15.6°C 45% 5.3 mph NNW8.5 kmh NNW 5.3 mph8.5 kmh 30.01 in1016.3 mb 0.00 in0.0 mm 0.00 in0.0 mm 0.00 in0.0 mm
02:29 PM 74.2°F23.4°C 59.4°F15.2°C 44% 4.4 mph 7.1 kmh 4.4 mph7.1 kmh 30.01 in1016.3 mb 0.00 in0.0 mm 0.00 in0.0 mm 0.00 in0.0 mm
02:32 PM 74.9°F23.8°C 60.2°F15.7°C 44% 3.6 mph WNW5.8 kmh WNW 3.7 mph6.0 kmh 30.01 in1016.3 mb 0.00 in0.0 mm 0.00 in0.0 mm 0.00 in0.0 mm
02:35 PM 75.5°F24.2°C 59.5°F15.3°C 45% 2.8 mph NW4.5 kmh NW 2.9 mph4.7 kmh 30.01 in1016.3 mb 0.00 in0.0 mm 0.00 in0.0 mm 0.00 in0.0 mm
02:38 PM 75.7°F24.3°C 60.7°F15.9°C 46% Calm Calm -- 30.01 in1016.3 mb 0.00 in0.0 mm 0.00 in0.0 mm 0.00 in0.0 mm
02:41 PM 76.2°F24.6°C 60.4°F15.8°C 46% 1.6 mph NW2.6 kmh NW 1.6 mph2.6 kmh 30.01 in1016.3 mb 0.00 in0.0 mm 0.00 in0.0 mm 0.00 in0.0 mm
02:44 PM 75.7°F24.3°C 61.0°F16.1°C 46% 1.2 mph W1.9 kmh W 1.2 mph1.9 kmh 30.00 in1015.9 mb 0.00 in0.0 mm 0.00 in0.0 mm 0.00 in0.0 mm
02:47 PM 75.3°F24.1°C 60.4°F15.8°C 45% 2.8 mph W4.5 kmh W 2.8 mph4.5 kmh 30.01 in1016.3 mb 0.00 in0.0 mm 0.00 in0.0 mm 0.00 in0.0 mm
02:50 PM 77.8°F25.4°C 61.0°F16.1°C 45% 1.6 mph 2.6 kmh 1.6 mph2.6 kmh 30.00 in1015.9 mb 0.00 in0.0 mm 0.00 in0.0 mm 0.00 in0.0 mm
02:53 PM 75.9°F24.4°C 59.5°F15.3°C 43% 0.8 mph NW1.3 kmh NW 0.8 mph1.3 kmh 30.00 in1015.9 mb 0.00 in0.0 mm 0.00 in0.0 mm 0.00 in0.0 mm
02:56 PM 76.9°F24.9°C 59.7°F15.4°C 43% 2.0 mph 3.2 kmh 2.0 mph3.2 kmh 30.00 in1015.9 mb 0.00 in0.0 mm 0.00 in0.0 mm 0.00 in0.0 mm
02:59 PM 75.1°F23.9°C 59.7°F15.4°C 42% 3.6 mph 5.8 kmh 3.7 mph6.0 kmh 30.00 in1015.9 mb 0.00 in0.0 mm 0.00 in0.0 mm 0.00 in0.0 mm
03:02 PM 77.1°F25.1°C 59.6°F15.3°C 42% 2.8 mph W4.5 kmh W 2.8 mph4.5 kmh 30.00 in1015.9 mb 0.00 in0.0 mm 0.00 in0.0 mm 0.00 in0.0 mm
03:05 PM 77.1°F25.1°C 58.9°F14.9°C 42% 3.6 mph W5.8 kmh W 3.7 mph6.0 kmh 30.00 in1015.9 mb 0.00 in0.0 mm 0.00 in0.0 mm 0.00 in0.0 mm
03:08 PM 78.4°F25.8°C 59.6°F15.3°C 41% 2.8 mph NW4.5 kmh NW 2.9 mph4.7 kmh 30.00 in1015.9 mb 0.00 in0.0 mm 0.00 in0.0 mm 0.00 in0.0 mm
03:11 PM 79.4°F26.3°C 60.8°F16.0°C 42% 2.8 mph SW4.5 kmh SW 2.9 mph4.7 kmh 30.00 in1015.9 mb 0.00 in0.0 mm 0.00 in0.0 mm 0.00 in0.0 mm
03:14 PM 78.6°F25.9°C 59.8°F15.4°C 40% 1.2 mph SW1.9 kmh SW 1.2 mph1.9 kmh 30.00 in1015.9 mb 0.00 in0.0 mm 0.00 in0.0 mm 0.00 in0.0 mm
03:17 PM 78.8°F26.0°C 60.1°F15.6°C 41% 4.0 mph SW6.4 kmh SW 4.1 mph6.6 kmh 30.00 in1015.9 mb 0.00 in0.0 mm 0.00 in0.0 mm 0.00 in0.0 mm
03:20 PM 78.9°F26.1°C 60.6°F15.9°C 41% 4.9 mph NNW7.9 kmh NNW 4.9 mph7.9 kmh 30.00 in1015.9 mb 0.00 in0.0 mm 0.00 in0.0 mm 0.00 in0.0 mm
03:23 PM 77.6°F25.3°C 59.8°F15.4°C 40% 6.5 mph WSW10.5 kmh WSW 6.5 mph10.5 kmh 30.00 in1015.9 mb 0.00 in0.0 mm 0.00 in0.0 mm 0.00 in0.0 mm
03:26 PM 76.0°F24.4°C 58.6°F14.8°C 40% 3.6 mph NNW5.8 kmh NNW 3.6 mph5.8 kmh 29.99 in1015.6 mb 0.00 in0.0 mm 0.00 in0.0 mm 0.00 in0.0 mm
03:29 PM 77.2°F25.1°C 60.6°F15.9°C 43% 1.2 mph W1.9 kmh W 1.2 mph1.9 kmh 29.99 in1015.6 mb 0.00 in0.0 mm 0.00 in0.0 mm 0.00 in0.0 mm
03:32 PM 77.1°F25.1°C 60.1°F15.6°C 42% 4.0 mph NNW6.4 kmh NNW 4.0 mph6.4 kmh 29.99 in1015.6 mb 0.00 in0.0 mm 0.00 in0.0 mm 0.00 in0.0 mm
03:38 PM 77.0°F25.0°C 60.6°F15.9°C 42% 1.2 mph WNW1.9 kmh WNW 1.2 mph1.9 kmh 29.99 in1015.6 mb 0.00 in0.0 mm 0.00 in0.0 mm 0.00 in0.0 mm
03:41 PM 78.5°F25.8°C 60.0°F15.6°C 41% 4.0 mph NNW6.4 kmh NNW 4.0 mph6.4 kmh 29.99 in1015.6 mb 0.00 in0.0 mm 0.00 in0.0 mm 0.00 in0.0 mm
03:44 PM 78.4°F25.8°C 60.6°F15.9°C 42% 4.0 mph W6.4 kmh W 4.0 mph6.4 kmh 29.99 in1015.6 mb 0.00 in0.0 mm 0.00 in0.0 mm 0.00 in0.0 mm
03:47 PM 77.8°F25.4°C 59.9°F15.5°C 42% 0.8 mph NW1.3 kmh NW 0.8 mph1.3 kmh 29.99 in1015.6 mb 0.00 in0.0 mm 0.00 in0.0 mm 0.00 in0.0 mm
03:50 PM 77.6°F25.3°C 59.9°F15.5°C 41% 2.0 mph SW3.2 kmh SW 2.0 mph3.2 kmh 29.99 in1015.6 mb 0.00 in0.0 mm 0.00 in0.0 mm 0.00 in0.0 mm
03:53 PM 77.8°F25.4°C 60.4°F15.8°C 42% 0.8 mph NNW1.3 kmh NNW 0.8 mph1.3 kmh 29.99 in1015.6 mb 0.00 in0.0 mm 0.00 in0.0 mm 0.00 in0.0 mm
03:56 PM 77.1°F25.1°C 60.5°F15.8°C 42% 3.2 mph SW5.1 kmh SW 3.3 mph5.3 kmh 29.99 in1015.6 mb 0.00 in0.0 mm 0.00 in0.0 mm 0.00 in0.0 mm
03:59 PM 77.1°F25.1°C 60.5°F15.8°C 42% 2.8 mph NW4.5 kmh NW 2.9 mph4.7 kmh 29.99 in1015.6 mb 0.00 in0.0 mm 0.00 in0.0 mm 0.00 in0.0 mm
04:02 PM 77.6°F25.3°C 59.5°F15.3°C 41% 3.2 mph WSW5.1 kmh WSW 3.2 mph5.1 kmh 29.99 in1015.6 mb 0.00 in0.0 mm 0.00 in0.0 mm 0.00 in0.0 mm
04:05 PM 78.8°F26.0°C 60.2°F15.7°C 43% 2.0 mph WNW3.2 kmh WNW 2.0 mph3.2 kmh 29.99 in1015.6 mb 0.00 in0.0 mm 0.00 in0.0 mm 0.00 in0.0 mm
04:08 PM 80.3°F26.8°C 59.5°F15.3°C 41% 2.8 mph NNW4.5 kmh NNW 2.8 mph4.5 kmh 29.99 in1015.6 mb 0.00 in0.0 mm 0.00 in0.0 mm 0.00 in0.0 mm
04:14 PM 80.5°F26.9°C 60.6°F15.9°C 42% 3.6 mph NNW5.8 kmh NNW 3.6 mph5.8 kmh 29.99 in1015.6 mb 0.00 in0.0 mm 0.00 in0.0 mm 0.00 in0.0 mm
04:17 PM 79.5°F26.4°C 60.1°F15.6°C 41% 3.2 mph NNW5.1 kmh NNW 3.2 mph5.1 kmh 29.99 in1015.6 mb 0.00 in0.0 mm 0.00 in0.0 mm 0.00 in0.0 mm
04:20 PM 80.6°F27.0°C 59.1°F15.1°C 40% 3.7 mph NW6.0 kmh NW 3.7 mph6.0 kmh 29.99 in1015.6 mb 0.00 in0.0 mm 0.00 in0.0 mm 0.00 in0.0 mm
04:23 PM 78.8°F26.0°C 59.1°F15.1°C 38% 6.8 mph WSW10.9 kmh WSW 6.9 mph11.1 kmh 29.99 in1015.6 mb 0.00 in0.0 mm 0.00 in0.0 mm 0.00 in0.0 mm
04:26 PM 78.5°F25.8°C 60.3°F15.7°C 40% 3.4 mph WSW5.5 kmh WSW 3.4 mph5.5 kmh 29.99 in1015.6 mb 0.00 in0.0 mm 0.00 in0.0 mm 0.00 in0.0 mm
04:29 PM 77.3°F25.2°C 59.3°F15.2°C 41% 6.0 mph W9.7 kmh W 6.0 mph9.7 kmh 29.99 in1015.6 mb 0.00 in0.0 mm 0.00 in0.0 mm 0.00 in0.0 mm
04:32 PM 78.5°F25.8°C 59.4°F15.2°C 40% 2.0 mph W3.2 kmh W 2.0 mph3.2 kmh 29.99 in1015.6 mb 0.00 in0.0 mm 0.00 in0.0 mm 0.00 in0.0 mm
04:35 PM 76.9°F24.9°C 58.3°F14.6°C 39% 4.9 mph WSW7.9 kmh WSW 4.9 mph7.9 kmh 29.99 in1015.6 mb 0.00 in0.0 mm 0.00 in0.0 mm 0.00 in0.0 mm
04:38 PM 77.9°F25.5°C 59.4°F15.2°C 40% 4.1 mph SW6.6 kmh SW 4.1 mph6.6 kmh 29.99 in1015.6 mb 0.00 in0.0 mm 0.00 in0.0 mm 0.00 in0.0 mm
04:41 PM 79.4°F26.3°C 59.7°F15.4°C 41% 4.8 mph WSW7.7 kmh WSW 4.9 mph7.9 kmh 29.99 in1015.6 mb 0.00 in0.0 mm 0.00 in0.0 mm 0.00 in0.0 mm
04:44 PM 79.3°F26.3°C 60.0°F15.6°C 42% 4.4 mph W7.1 kmh W 4.4 mph7.1 kmh 29.99 in1015.6 mb 0.00 in0.0 mm 0.00 in0.0 mm 0.00 in0.0 mm
04:47 PM 78.8°F26.0°C 59.4°F15.2°C 41% 2.0 mph NW3.2 kmh NW 2.0 mph3.2 kmh 29.99 in1015.6 mb 0.00 in0.0 mm 0.00 in0.0 mm 0.00 in0.0 mm
04:50 PM 79.7°F26.5°C 59.4°F15.2°C 41% 6.1 mph NNW9.8 kmh NNW 6.1 mph9.8 kmh 29.99 in1015.6 mb 0.00 in0.0 mm 0.00 in0.0 mm 0.00 in0.0 mm
04:53 PM 81.3°F27.4°C 60.3°F15.7°C 41% 2.0 mph W3.2 kmh W 2.0 mph3.2 kmh 29.99 in1015.6 mb 0.00 in0.0 mm 0.00 in0.0 mm 0.00 in0.0 mm
04:56 PM 80.0°F26.7°C 59.3°F15.2°C 40% 4.8 mph WSW7.7 kmh WSW 4.9 mph7.9 kmh 29.98 in1015.2 mb 0.00 in0.0 mm 0.00 in0.0 mm 0.00 in0.0 mm
04:59 PM 79.0°F26.1°C 60.3°F15.7°C 41% 4.8 mph W7.7 kmh W 4.9 mph7.9 kmh 29.98 in1015.2 mb 0.00 in0.0 mm 0.00 in0.0 mm 0.00 in0.0 mm
05:02 PM 79.0°F26.1°C 59.0°F15.0°C 40% 4.4 mph NNW7.1 kmh NNW 4.4 mph7.1 kmh 29.99 in1015.6 mb 0.00 in0.0 mm 0.00 in0.0 mm 0.00 in0.0 mm
05:05 PM 80.2°F26.8°C 58.8°F14.9°C 40% 0.8 mph WSW1.3 kmh WSW 0.8 mph1.3 kmh 29.98 in1015.2 mb 0.00 in0.0 mm 0.00 in0.0 mm 0.00 in0.0 mm
05:08 PM 77.3°F25.2°C 60.2°F15.7°C 42% 5.7 mph NNW9.2 kmh NNW 5.7 mph9.2 kmh 29.99 in1015.6 mb 0.00 in0.0 mm 0.00 in0.0 mm 0.00 in0.0 mm
05:11 PM 77.9°F25.5°C 58.8°F14.9°C 40% 3.2 mph NNW5.1 kmh NNW 3.3 mph5.3 kmh 29.98 in1015.2 mb 0.00 in0.0 mm 0.00 in0.0 mm 0.00 in0.0 mm
05:14 PM 78.4°F25.8°C 59.8°F15.4°C 41% 2.4 mph 3.9 kmh 2.4 mph3.9 kmh 29.98 in1015.2 mb 0.00 in0.0 mm 0.00 in0.0 mm 0.00 in0.0 mm
05:17 PM 78.7°F25.9°C 59.1°F15.1°C 41% 3.2 mph NW5.1 kmh NW 3.3 mph5.3 kmh 29.98 in1015.2 mb 0.00 in0.0 mm 0.00 in0.0 mm 0.00 in0.0 mm
05:20 PM 78.0°F25.6°C 58.9°F14.9°C 41% 0.8 mph NW1.3 kmh NW 0.8 mph1.3 kmh 29.98 in1015.2 mb 0.00 in0.0 mm 0.00 in0.0 mm 0.00 in0.0 mm
05:23 PM 78.8°F26.0°C 59.9°F15.5°C 41% 0.4 mph NNW0.6 kmh NNW 0.4 mph0.6 kmh 29.98 in1015.2 mb 0.00 in0.0 mm 0.00 in0.0 mm 0.00 in0.0 mm
05:26 PM 78.4°F25.8°C 59.3°F15.2°C 42% 1.6 mph 2.6 kmh 1.6 mph2.6 kmh 29.98 in1015.2 mb 0.00 in0.0 mm 0.00 in0.0 mm 0.00 in0.0 mm
05:29 PM 78.8°F26.0°C 58.7°F14.8°C 41% 2.0 mph WNW3.2 kmh WNW 2.0 mph3.2 kmh 29.97 in1014.9 mb 0.00 in0.0 mm 0.00 in0.0 mm 0.00 in0.0 mm
05:32 PM 79.7°F26.5°C 58.2°F14.6°C 41% 1.6 mph NNW2.6 kmh NNW 1.6 mph2.6 kmh 29.98 in1015.2 mb 0.00 in0.0 mm 0.00 in0.0 mm 0.00 in0.0 mm
05:35 PM 79.0°F26.1°C 58.7°F14.8°C 40% 3.2 mph NNW5.1 kmh NNW 3.3 mph5.3 kmh 29.97 in1014.9 mb 0.00 in0.0 mm 0.00 in0.0 mm 0.00 in0.0 mm
05:38 PM 78.2°F25.7°C 58.0°F14.4°C 40% 2.0 mph NW3.2 kmh NW 2.0 mph3.2 kmh 29.98 in1015.2 mb 0.00 in0.0 mm 0.00 in0.0 mm 0.00 in0.0 mm
05:41 PM 77.2°F25.1°C 58.5°F14.7°C 41% 1.6 mph W2.6 kmh W 1.6 mph2.6 kmh 29.97 in1014.9 mb 0.00 in0.0 mm 0.00 in0.0 mm 0.00 in0.0 mm
05:44 PM 77.5°F25.3°C 59.1°F15.1°C 42% 3.6 mph NW5.8 kmh NW 3.7 mph6.0 kmh 29.98 in1015.2 mb 0.00 in0.0 mm 0.00 in0.0 mm 0.00 in0.0 mm
05:47 PM 78.6°F25.9°C 58.4°F14.7°C 41% 2.7 mph NW4.3 kmh NW 2.7 mph4.3 kmh 29.98 in1015.2 mb 0.00 in0.0 mm 0.00 in0.0 mm 0.00 in0.0 mm
05:50 PM 78.5°F25.8°C 58.7°F14.8°C 41% 3.6 mph NNW5.8 kmh NNW 3.6 mph5.8 kmh 29.98 in1015.2 mb 0.00 in0.0 mm 0.00 in0.0 mm 0.00 in0.0 mm
05:53 PM 78.2°F25.7°C 57.5°F14.2°C 40% 4.5 mph NNW7.2 kmh NNW 4.5 mph7.2 kmh 29.98 in1015.2 mb 0.00 in0.0 mm 0.00 in0.0 mm 0.00 in0.0 mm
05:56 PM 78.7°F25.9°C 58.7°F14.8°C 42% 1.6 mph NW2.6 kmh NW 1.6 mph2.6 kmh 29.98 in1015.2 mb 0.00 in0.0 mm 0.00 in0.0 mm 0.00 in0.0 mm
05:59 PM 78.4°F25.8°C 59.7°F15.4°C 43% 1.6 mph NW2.6 kmh NW 1.6 mph2.6 kmh 29.98 in1015.2 mb 0.00 in0.0 mm 0.00 in0.0 mm 0.00 in0.0 mm
06:02 PM 79.1°F26.2°C 59.9°F15.5°C 43% 2.0 mph NNW3.2 kmh NNW 2.0 mph3.2 kmh 29.98 in1015.2 mb 0.00 in0.0 mm 0.00 in0.0 mm 0.00 in0.0 mm
06:05 PM 78.5°F25.8°C 59.4°F15.2°C 42% 2.8 mph NNW4.5 kmh NNW 2.9 mph4.7 kmh 29.98 in1015.2 mb 0.00 in0.0 mm 0.00 in0.0 mm 0.00 in0.0 mm
06:08 PM 77.9°F25.5°C 59.0°F15.0°C 41% 2.8 mph NNW4.5 kmh NNW 2.9 mph4.7 kmh 29.97 in1014.9 mb 0.00 in0.0 mm 0.00 in0.0 mm 0.00 in0.0 mm
06:11 PM 77.7°F25.4°C 59.4°F15.2°C 42% 1.2 mph NW1.9 kmh NW 1.2 mph1.9 kmh 29.97 in1014.9 mb 0.00 in0.0 mm 0.00 in0.0 mm 0.00 in0.0 mm
06:14 PM 77.3°F25.2°C 59.9°F15.5°C 42% 1.2 mph NNW1.9 kmh NNW 1.2 mph1.9 kmh 29.97 in1014.9 mb 0.00 in0.0 mm 0.00 in0.0 mm 0.00 in0.0 mm
06:17 PM 77.1°F25.1°C 59.2°F15.1°C 42% 1.2 mph NW1.9 kmh NW 1.2 mph1.9 kmh 29.97 in1014.9 mb 0.00 in0.0 mm 0.00 in0.0 mm 0.00 in0.0 mm
06:20 PM 77.6°F25.3°C 59.1°F15.1°C 42% 1.2 mph NW1.9 kmh NW 1.2 mph1.9 kmh 29.97 in1014.9 mb 0.00 in0.0 mm 0.00 in0.0 mm 0.00 in0.0 mm
06:23 PM 77.1°F25.1°C 58.7°F14.8°C 41% 0.8 mph NW1.3 kmh NW 0.8 mph1.3 kmh 29.97 in1014.9 mb 0.00 in0.0 mm 0.00 in0.0 mm 0.00 in0.0 mm
06:26 PM 76.8°F24.9°C 58.4°F14.7°C 42% 1.2 mph WNW1.9 kmh WNW 1.2 mph1.9 kmh 29.97 in1014.9 mb 0.00 in0.0 mm 0.00 in0.0 mm 0.00 in0.0 mm
06:29 PM 76.9°F24.9°C 59.2°F15.1°C 42% 0.8 mph NNW1.3 kmh NNW 0.8 mph1.3 kmh 29.97 in1014.9 mb 0.00 in0.0 mm 0.00 in0.0 mm 0.00 in0.0 mm
06:32 PM 76.3°F24.6°C 59.1°F15.1°C 43% 0.4 mph NNW0.6 kmh NNW 0.4 mph0.6 kmh 29.98 in1015.2 mb 0.00 in0.0 mm 0.00 in0.0 mm 0.00 in0.0 mm
06:35 PM 76.3°F24.6°C 59.7°F15.4°C 43% 2.0 mph NNW3.2 kmh NNW 2.0 mph3.2 kmh 29.98 in1015.2 mb 0.00 in0.0 mm 0.00 in0.0 mm 0.00 in0.0 mm
06:38 PM 76.3°F24.6°C 59.5°F15.3°C 44% 1.6 mph NNW2.6 kmh NNW 1.6 mph2.6 kmh 29.98 in1015.2 mb 0.00 in0.0 mm 0.00 in0.0 mm 0.00 in0.0 mm
06:44 PM 75.0°F23.9°C 59.6°F15.3°C 43% 2.0 mph NNW3.2 kmh NNW 2.0 mph3.2 kmh 29.98 in1015.2 mb 0.00 in0.0 mm 0.00 in0.0 mm 0.00 in0.0 mm
06:47 PM 75.2°F24.0°C 60.3°F15.7°C 44% 0.8 mph NNW1.3 kmh NNW 0.8 mph1.3 kmh 29.98 in1015.2 mb 0.00 in0.0 mm 0.00 in0.0 mm 0.00 in0.0 mm
06:50 PM 75.1°F23.9°C 58.8°F14.9°C 43% 1.6 mph NNW2.6 kmh NNW 1.6 mph2.6 kmh 29.98 in1015.2 mb 0.00 in0.0 mm 0.00 in0.0 mm 0.00 in0.0 mm
06:53 PM 74.9°F23.8°C 59.5°F15.3°C 44% 2.8 mph NW4.5 kmh NW 2.9 mph4.7 kmh 29.98 in1015.2 mb 0.00 in0.0 mm 0.00 in0.0 mm 0.00 in0.0 mm
06:59 PM 74.4°F23.6°C 58.5°F14.7°C 42% 4.1 mph NNW6.6 kmh NNW 4.1 mph6.6 kmh 29.98 in1015.2 mb 0.00 in0.0 mm 0.00 in0.0 mm 0.00 in0.0 mm
07:02 PM 74.0°F23.3°C 58.5°F14.7°C 43% 3.2 mph NW5.1 kmh NW 3.3 mph5.3 kmh 29.98 in1015.2 mb 0.00 in0.0 mm 0.00 in0.0 mm 0.00 in0.0 mm
07:05 PM 73.7°F23.2°C 58.0°F14.4°C 43% 2.0 mph NW3.2 kmh NW 2.0 mph3.2 kmh 29.98 in1015.2 mb 0.00 in0.0 mm 0.00 in0.0 mm 0.00 in0.0 mm
07:08 PM 73.3°F22.9°C 57.9°F14.4°C 43% 3.2 mph NNW5.1 kmh NNW 3.2 mph5.1 kmh 29.98 in1015.2 mb 0.00 in0.0 mm 0.00 in0.0 mm 0.00 in0.0 mm
07:11 PM 72.5°F22.5°C 58.6°F14.8°C 44% 3.2 mph 5.1 kmh 3.3 mph5.3 kmh 29.98 in1015.2 mb 0.00 in0.0 mm 0.00 in0.0 mm 0.00 in0.0 mm
07:14 PM 72.1°F22.3°C 59.0°F15.0°C 45% 1.2 mph 1.9 kmh 1.2 mph1.9 kmh 29.98 in1015.2 mb 0.00 in0.0 mm 0.00 in0.0 mm 0.00 in0.0 mm
07:17 PM 71.8°F22.1°C 58.0°F14.4°C 44% 2.8 mph 4.5 kmh 2.8 mph4.5 kmh 29.98 in1015.2 mb 0.00 in0.0 mm 0.00 in0.0 mm 0.00 in0.0 mm
07:20 PM 71.7°F22.1°C 58.7°F14.8°C 45% 1.2 mph 1.9 kmh 1.2 mph1.9 kmh 29.97 in1014.9 mb 0.00 in0.0 mm 0.00 in0.0 mm 0.00 in0.0 mm
07:23 PM 71.5°F21.9°C 58.7°F14.8°C 45% 1.6 mph 2.6 kmh 1.6 mph2.6 kmh 29.98 in1015.2 mb 0.00 in0.0 mm 0.00 in0.0 mm 0.00 in0.0 mm
07:26 PM 71.0°F21.7°C 58.1°F14.5°C 45% 0.8 mph NNW1.3 kmh NNW 0.8 mph1.3 kmh 29.98 in1015.2 mb 0.00 in0.0 mm 0.00 in0.0 mm 0.00 in0.0 mm
07:29 PM 71.0°F21.7°C 58.2°F14.6°C 45% 2.0 mph 3.2 kmh 2.0 mph3.2 kmh 29.97 in1014.9 mb 0.00 in0.0 mm 0.00 in0.0 mm 0.00 in0.0 mm
07:32 PM 70.8°F21.6°C 59.3°F15.2°C 46% 2.0 mph 3.2 kmh 2.0 mph3.2 kmh 29.98 in1015.2 mb 0.00 in0.0 mm 0.00 in0.0 mm 0.00 in0.0 mm
07:35 PM 70.7°F21.5°C 58.8°F14.9°C 47% 1.6 mph 2.6 kmh 1.6 mph2.6 kmh 29.98 in1015.2 mb 0.00 in0.0 mm 0.00 in0.0 mm 0.00 in0.0 mm
07:38 PM 69.6°F20.9°C 58.5°F14.7°C 47% 1.6 mph 2.6 kmh 1.6 mph2.6 kmh 29.98 in1015.2 mb 0.00 in0.0 mm 0.00 in0.0 mm 0.00 in0.0 mm
07:41 PM 69.8°F21.0°C 60.2°F15.7°C 48% Calm Calm -- 29.99 in1015.6 mb 0.00 in0.0 mm 0.00 in0.0 mm 0.00 in0.0 mm
07:44 PM 68.8°F20.4°C 59.9°F15.5°C 50% Calm Calm -- 29.98 in1015.2 mb 0.00 in0.0 mm 0.00 in0.0 mm 0.00 in0.0 mm
07:47 PM 68.2°F20.1°C 59.6°F15.3°C 50% Calm Calm -- 29.98 in1015.2 mb 0.00 in0.0 mm 0.00 in0.0 mm 0.00 in0.0 mm
07:50 PM 67.9°F19.9°C 60.3°F15.7°C 52% Calm Calm -- 29.98 in1015.2 mb 0.00 in0.0 mm 0.00 in0.0 mm 0.00 in0.0 mm
07:53 PM 67.2°F19.6°C 60.8°F16.0°C 53% Calm Calm -- 29.98 in1015.2 mb 0.00 in0.0 mm 0.00 in0.0 mm 0.00 in0.0 mm
07:56 PM 67.2°F19.6°C 60.7°F15.9°C 54% Calm Calm -- 29.98 in1015.2 mb 0.00 in0.0 mm 0.00 in0.0 mm 0.00 in0.0 mm
07:59 PM 66.5°F19.2°C 61.4°F16.3°C 56% Calm Calm -- 29.98 in1015.2 mb 0.00 in0.0 mm 0.00 in0.0 mm 0.00 in0.0 mm
08:02 PM 66.5°F19.2°C 62.7°F17.1°C 57% Calm Calm -- 29.99 in1015.6 mb 0.00 in0.0 mm 0.00 in0.0 mm 0.00 in0.0 mm
08:05 PM 65.6°F18.7°C 61.9°F16.6°C 57% Calm Calm -- 29.99 in1015.6 mb 0.00 in0.0 mm 0.00 in0.0 mm 0.00 in0.0 mm
08:08 PM 65.3°F18.5°C 61.5°F16.4°C 56% Calm Calm -- 29.98 in1015.2 mb 0.00 in0.0 mm 0.00 in0.0 mm 0.00 in0.0 mm
08:11 PM 64.9°F18.3°C 61.5°F16.4°C 56% Calm Calm -- 29.98 in1015.2 mb 0.00 in0.0 mm 0.00 in0.0 mm 0.00 in0.0 mm
08:14 PM 63.7°F17.6°C 61.2°F16.2°C 57% Calm Calm -- 29.99 in1015.6 mb 0.00 in0.0 mm 0.00 in0.0 mm 0.00 in0.0 mm
08:17 PM 64.1°F17.8°C 61.4°F16.3°C 58% Calm Calm -- 29.99 in1015.6 mb 0.00 in0.0 mm 0.00 in0.0 mm 0.00 in0.0 mm
08:20 PM 64.2°F17.9°C 61.3°F16.3°C 58% Calm Calm -- 29.99 in1015.6 mb 0.00 in0.0 mm 0.00 in0.0 mm 0.00 in0.0 mm
08:23 PM 63.6°F17.6°C 62.2°F16.8°C 60% Calm Calm -- 29.99 in1015.6 mb 0.00 in0.0 mm 0.00 in0.0 mm 0.00 in0.0 mm
08:26 PM 63.5°F17.5°C 62.9°F17.2°C 61% Calm Calm -- 29.99 in1015.6 mb 0.00 in0.0 mm 0.00 in0.0 mm 0.00 in0.0 mm
08:29 PM 62.8°F17.1°C 62.2°F16.8°C 61% Calm Calm -- 29.99 in1015.6 mb 0.00 in0.0 mm 0.00 in0.0 mm 0.00 in0.0 mm
08:32 PM 61.8°F16.6°C 62.0°F16.7°C 62% Calm Calm -- 29.99 in1015.6 mb 0.00 in0.0 mm 0.00 in0.0 mm 0.00 in0.0 mm
08:35 PM 61.8°F16.6°C 61.9°F16.6°C 62% Calm Calm -- 29.99 in1015.6 mb 0.00 in0.0 mm 0.00 in0.0 mm 0.00 in0.0 mm
08:38 PM 60.6°F15.9°C 62.1°F16.7°C 63% Calm Calm -- 29.99 in1015.6 mb 0.00 in0.0 mm 0.00 in0.0 mm 0.00 in0.0 mm
08:41 PM 61.4°F16.3°C 60.7°F15.9°C 61% Calm Calm -- 29.99 in1015.6 mb 0.00 in0.0 mm 0.00 in0.0 mm 0.00 in0.0 mm
08:44 PM 60.4°F15.8°C 61.3°F16.3°C 62% Calm Calm -- 29.99 in1015.6 mb 0.00 in0.0 mm 0.00 in0.0 mm 0.00 in0.0 mm
08:47 PM 60.0°F15.6°C 60.2°F15.7°C 61% Calm Calm -- 29.99 in1015.6 mb 0.00 in0.0 mm 0.00 in0.0 mm 0.00 in0.0 mm
08:50 PM 60.7°F15.9°C 60.1°F15.6°C 62% Calm Calm -- 29.99 in1015.6 mb 0.00 in0.0 mm 0.00 in0.0 mm 0.00 in0.0 mm
08:53 PM 60.5°F15.8°C 60.2°F15.7°C 62% Calm Calm -- 29.99 in1015.6 mb 0.00 in0.0 mm 0.00 in0.0 mm 0.00 in0.0 mm
08:59 PM 59.6°F15.3°C 60.0°F15.6°C 63% Calm Calm -- 29.99 in1015.6 mb 0.00 in0.0 mm 0.00 in0.0 mm 0.00 in0.0 mm
09:02 PM 59.1°F15.1°C 59.6°F15.3°C 63% Calm Calm -- 29.98 in1015.2 mb 0.00 in0.0 mm 0.00 in0.0 mm 0.00 in0.0 mm
09:05 PM 58.4°F14.7°C 59.7°F15.4°C 63% Calm Calm -- 29.98 in1015.2 mb 0.00 in0.0 mm 0.00 in0.0 mm 0.00 in0.0 mm
09:08 PM 57.8°F14.3°C 59.3°F15.2°C 63% Calm Calm -- 29.99 in1015.6 mb 0.00 in0.0 mm 0.00 in0.0 mm 0.00 in0.0 mm
09:11 PM 57.0°F13.9°C 59.0°F15.0°C 63% Calm Calm -- 29.98 in1015.2 mb 0.00 in0.0 mm 0.00 in0.0 mm 0.00 in0.0 mm
09:14 PM 57.2°F14.0°C 59.3°F15.2°C 65% Calm Calm -- 29.99 in1015.6 mb 0.00 in0.0 mm 0.00 in0.0 mm 0.00 in0.0 mm
09:17 PM 57.5°F14.2°C 59.3°F15.2°C 65% Calm Calm -- 29.98 in1015.2 mb 0.00 in0.0 mm 0.00 in0.0 mm 0.00 in0.0 mm
09:20 PM 57.3°F14.1°C 59.0°F15.0°C 65% Calm Calm -- 29.98 in1015.2 mb 0.00 in0.0 mm 0.00 in0.0 mm 0.00 in0.0 mm
09:23 PM 57.2°F14.0°C 58.7°F14.8°C 64% Calm Calm -- 29.99 in1015.6 mb 0.00 in0.0 mm 0.00 in0.0 mm 0.00 in0.0 mm
09:26 PM 56.9°F13.8°C 58.5°F14.7°C 64% Calm Calm -- 29.99 in1015.6 mb 0.00 in0.0 mm 0.00 in0.0 mm 0.00 in0.0 mm
09:29 PM 57.3°F14.1°C 58.6°F14.8°C 65% Calm Calm -- 29.99 in1015.6 mb 0.00 in0.0 mm 0.00 in0.0 mm 0.00 in0.0 mm
09:32 PM 56.9°F13.8°C 58.6°F14.8°C 65% Calm Calm -- 29.99 in1015.6 mb 0.00 in0.0 mm 0.00 in0.0 mm 0.00 in0.0 mm
09:35 PM 56.6°F13.7°C 58.7°F14.8°C 65% Calm Calm -- 29.99 in1015.6 mb 0.00 in0.0 mm 0.00 in0.0 mm 0.00 in0.0 mm
09:38 PM 56.4°F13.6°C 58.5°F14.7°C 66% Calm Calm -- 29.99 in1015.6 mb 0.00 in0.0 mm 0.00 in0.0 mm 0.00 in0.0 mm
09:44 PM 56.2°F13.4°C 58.1°F14.5°C 66% Calm Calm -- 29.99 in1015.6 mb 0.00 in0.0 mm 0.00 in0.0 mm 0.00 in0.0 mm
09:47 PM 55.6°F13.1°C 58.6°F14.8°C 67% Calm Calm -- 29.99 in1015.6 mb 0.00 in0.0 mm 0.00 in0.0 mm 0.00 in0.0 mm
09:50 PM 56.1°F13.4°C 58.8°F14.9°C 69% Calm Calm -- 29.99 in1015.6 mb 0.00 in0.0 mm 0.00 in0.0 mm 0.00 in0.0 mm
09:53 PM 56.1°F13.4°C 58.9°F14.9°C 69% Calm Calm -- 29.99 in1015.6 mb 0.00 in0.0 mm 0.00 in0.0 mm 0.00 in0.0 mm
09:56 PM 55.5°F13.1°C 58.4°F14.7°C 68% Calm Calm -- 29.99 in1015.6 mb 0.00 in0.0 mm 0.00 in0.0 mm 0.00 in0.0 mm
09:59 PM 55.7°F13.2°C 57.9°F14.4°C 68% Calm Calm -- 29.99 in1015.6 mb 0.00 in0.0 mm 0.00 in0.0 mm 0.00 in0.0 mm
10:02 PM 55.2°F12.9°C 57.7°F14.3°C 68% Calm Calm -- 29.99 in1015.6 mb 0.00 in0.0 mm 0.00 in0.0 mm 0.00 in0.0 mm
10:05 PM 55.1°F12.8°C 57.5°F14.2°C 67% Calm Calm -- 29.99 in1015.6 mb 0.00 in0.0 mm 0.00 in0.0 mm 0.00 in0.0 mm
10:08 PM 55.5°F13.1°C 57.5°F14.2°C 68% Calm Calm -- 29.99 in1015.6 mb 0.00 in0.0 mm 0.00 in0.0 mm 0.00 in0.0 mm
10:11 PM 55.6°F13.1°C 57.6°F14.2°C 68% Calm Calm -- 29.99 in1015.6 mb 0.00 in0.0 mm 0.00 in0.0 mm 0.00 in0.0 mm
10:14 PM 55.4°F13.0°C 57.6°F14.2°C 68% Calm Calm -- 29.99 in1015.6 mb 0.00 in0.0 mm 0.00 in0.0 mm 0.00 in0.0 mm
10:17 PM 55.7°F13.2°C 57.6°F14.2°C 68% Calm Calm -- 29.99 in1015.6 mb 0.00 in0.0 mm 0.00 in0.0 mm 0.00 in0.0 mm
10:20 PM 55.1°F12.8°C 57.5°F14.2°C 68% Calm Calm -- 29.99 in1015.6 mb 0.00 in0.0 mm 0.00 in0.0 mm 0.00 in0.0 mm
10:23 PM 54.8°F12.7°C 57.8°F14.3°C 69% Calm Calm -- 29.99 in1015.6 mb 0.00 in0.0 mm 0.00 in0.0 mm 0.00 in0.0 mm
10:26 PM 53.9°F12.2°C 57.1°F13.9°C 68% Calm Calm -- 29.99 in1015.6 mb 0.00 in0.0 mm 0.00 in0.0 mm 0.00 in0.0 mm
10:29 PM 54.3°F12.4°C 57.0°F13.9°C 69% Calm Calm -- 29.99 in1015.6 mb 0.00 in0.0 mm 0.00 in0.0 mm 0.00 in0.0 mm
10:32 PM 54.4°F12.4°C 57.5°F14.2°C 70% Calm Calm -- 29.99 in1015.6 mb 0.00 in0.0 mm 0.00 in0.0 mm 0.00 in0.0 mm
10:35 PM 54.5°F12.5°C 57.1°F13.9°C 70% Calm Calm -- 29.99 in1015.6 mb 0.00 in0.0 mm 0.00 in0.0 mm 0.00 in0.0 mm
10:41 PM 53.8°F12.1°C 57.2°F14.0°C 70% Calm Calm -- 29.99 in1015.6 mb 0.00 in0.0 mm 0.00 in0.0 mm 0.00 in0.0 mm
10:44 PM 54.2°F12.3°C 56.9°F13.8°C 70% Calm Calm -- 29.99 in1015.6 mb 0.00 in0.0 mm 0.00 in0.0 mm 0.00 in0.0 mm
10:47 PM 54.1°F12.3°C 56.8°F13.8°C 70% Calm Calm -- 29.99 in1015.6 mb 0.00 in0.0 mm 0.00 in0.0 mm 0.00 in0.0 mm
10:50 PM 54.3°F12.4°C 56.6°F13.7°C 69% Calm Calm -- 29.99 in1015.6 mb 0.00 in0.0 mm 0.00 in0.0 mm 0.00 in0.0 mm
10:53 PM 54.1°F12.3°C 56.4°F13.6°C 69% 0.4 mph NNW0.6 kmh NNW 0.4 mph0.6 kmh 29.99 in1015.6 mb 0.00 in0.0 mm 0.00 in0.0 mm 0.00 in0.0 mm
10:56 PM 53.5°F11.9°C 56.3°F13.5°C 69% Calm Calm -- 29.99 in1015.6 mb 0.00 in0.0 mm 0.00 in0.0 mm 0.00 in0.0 mm
10:59 PM 53.7°F12.1°C 56.4°F13.6°C 70% Calm Calm -- 29.99 in1015.6 mb 0.00 in0.0 mm 0.00 in0.0 mm 0.00 in0.0 mm
11:02 PM 53.9°F12.2°C 56.3°F13.5°C 70% Calm Calm -- 29.99 in1015.6 mb 0.00 in0.0 mm 0.00 in0.0 mm 0.00 in0.0 mm
11:05 PM 53.6°F12.0°C 55.9°F13.3°C 70% Calm Calm -- 29.99 in1015.6 mb 0.00 in0.0 mm 0.00 in0.0 mm 0.00 in0.0 mm
11:08 PM 53.7°F12.1°C 56.3°F13.5°C 70% Calm Calm -- 29.99 in1015.6 mb 0.00 in0.0 mm 0.00 in0.0 mm 0.00 in0.0 mm
11:11 PM 53.7°F12.1°C 56.3°F13.5°C 71% Calm Calm -- 29.99 in1015.6 mb 0.00 in0.0 mm 0.00 in0.0 mm 0.00 in0.0 mm
11:14 PM 54.1°F12.3°C 56.1°F13.4°C 71% Calm Calm -- 29.99 in1015.6 mb 0.00 in0.0 mm 0.00 in0.0 mm 0.00 in0.0 mm
11:17 PM 53.5°F11.9°C 56.0°F13.3°C 70% Calm Calm -- 29.99 in1015.6 mb 0.00 in0.0 mm 0.00 in0.0 mm 0.00 in0.0 mm
11:20 PM 53.2°F11.8°C 55.9°F13.3°C 70% Calm Calm -- 29.99 in1015.6 mb 0.00 in0.0 mm 0.00 in0.0 mm 0.00 in0.0 mm
11:23 PM 53.3°F11.8°C 55.8°F13.2°C 70% Calm Calm -- 29.99 in1015.6 mb 0.00 in0.0 mm 0.00 in0.0 mm 0.00 in0.0 mm
11:26 PM 53.2°F11.8°C 55.7°F13.2°C 70% Calm Calm -- 29.99 in1015.6 mb 0.00 in0.0 mm 0.00 in0.0 mm 0.00 in0.0 mm
11:29 PM 53.2°F11.8°C 55.5°F13.1°C 70% Calm Calm -- 30.00 in1015.9 mb 0.00 in0.0 mm 0.00 in0.0 mm 0.00 in0.0 mm
11:32 PM 53.0°F11.7°C 55.7°F13.2°C 71% Calm Calm -- 29.99 in1015.6 mb 0.00 in0.0 mm 0.00 in0.0 mm 0.00 in0.0 mm
11:35 PM 53.2°F11.8°C 56.5°F13.6°C 73% Calm Calm -- 29.99 in1015.6 mb 0.00 in0.0 mm 0.00 in0.0 mm 0.00 in0.0 mm
11:38 PM 53.3°F11.8°C 56.2°F13.4°C 74% Calm Calm -- 29.99 in1015.6 mb 0.00 in0.0 mm 0.00 in0.0 mm 0.00 in0.0 mm
11:41 PM 53.0°F11.7°C 55.7°F13.2°C 72% Calm Calm -- 29.99 in1015.6 mb 0.00 in0.0 mm 0.00 in0.0 mm 0.00 in0.0 mm
11:44 PM 52.4°F11.3°C 56.0°F13.3°C 73% Calm Calm -- 29.99 in1015.6 mb 0.00 in0.0 mm 0.00 in0.0 mm 0.00 in0.0 mm
11:47 PM 52.5°F11.4°C 55.7°F13.2°C 72% Calm Calm -- 29.99 in1015.6 mb 0.00 in0.0 mm 0.00 in0.0 mm 0.00 in0.0 mm
11:50 PM 52.7°F11.5°C 55.5°F13.1°C 72% Calm Calm -- 29.99 in1015.6 mb 0.00 in0.0 mm 0.00 in0.0 mm 0.00 in0.0 mm
11:53 PM 52.7°F11.5°C 55.2°F12.9°C 72% Calm Calm -- 29.99 in1015.6 mb 0.00 in0.0 mm 0.00 in0.0 mm 0.00 in0.0 mm
11:56 PM 53.2°F11.8°C 55.2°F12.9°C 72% Calm Calm -- 30.00 in1015.9 mb 0.00 in0.0 mm 0.00 in0.0 mm 0.00 in0.0 mm
11:59 PM 52.9°F11.6°C 55.2°F12.9°C 72% Calm Calm -- 29.99 in1015.6 mb 0.00 in0.0 mm 0.00 in0.0 mm 0.00 in0.0 mm